Wetterdaten: Dienstag, 04.06.2013
Datum Zeit Temp. Aussen +5cm Feuchte Auss Luftdruck Regen Sonnenschein Regendauer UV Solar Windben
04.06.2013 00:00 10,9 C 9,0 C 75 % 1026,5 hPa 0,0 l/m 0 min 0 min 0,0 UV-I 0 W/m 0,0 km/h (0 Bft)
04.06.2013 00:02 10,9 C 9,0 C 75 % 1026,4 hPa 0,0 l/m 0 min 0 min 0,0 UV-I 0 W/m 0,0 km/h (0 Bft)
04.06.2013 00:06 10,8 C 9,0 C 76 % 1026,4 hPa 0,0 l/m 0 min 0 min 0,0 UV-I 0 W/m 7,7 km/h (2 Bft)
04.06.2013 00:08 10,8 C 9,0 C 76 % 1026,5 hPa 0,0 l/m 0 min 0 min 0,0 UV-I 0 W/m 5,1 km/h (1 Bft)
04.06.2013 00:10 10,8 C 9,0 C 76 % 1026,4 hPa 0,0 l/m 0 min 0 min 0,0 UV-I 0 W/m 0,0 km/h (0 Bft)
04.06.2013 00:12 10,7 C 9,0 C 76 % 1026,4 hPa 0,0 l/m 0 min 0 min 0,0 UV-I 0 W/m 2,6 km/h (1 Bft)
04.06.2013 00:14 10,7 C 9,0 C 76 % 1026,4 hPa 0,0 l/m 0 min 0 min 0,0 UV-I 0 W/m 10,3 km/h (2 Bft)
04.06.2013 00:16 10,6 C 9,0 C 77 % 1026,5 hPa 0,0 l/m 0 min 0 min 0,0 UV-I 0 W/m 5,1 km/h (1 Bft)
04.06.2013 00:18 10,6 C 9,0 C 77 % 1026,5 hPa 0,0 l/m 0 min 0 min 0,0 UV-I 0 W/m 7,7 km/h (2 Bft)
04.06.2013 00:20 10,6 C 9,0 C 77 % 1026,4 hPa 0,0 l/m 0 min 0 min 0,0 UV-I 0 W/m 5,1 km/h (1 Bft)
04.06.2013 00:22 10,5 C 9,0 C 77 % 1026,4 hPa 0,0 l/m 0 min 0 min 0,0 UV-I 0 W/m 7,7 km/h (2 Bft)
04.06.2013 00:24 10,4 C 9,0 C 77 % 1026,4 hPa 0,0 l/m 0 min 0 min 0,0 UV-I 0 W/m 0,0 km/h (0 Bft)
04.06.2013 00:26 10,4 C 9,0 C 77 % 1026,4 hPa 0,0 l/m 0 min 0 min 0,0 UV-I 0 W/m 0,0 km/h (0 Bft)
04.06.2013 00:28 10,4 C 8,4 C 78 % 1026,4 hPa 0,0 l/m 0 min 0 min 0,0 UV-I 0 W/m 5,1 km/h (1 Bft)
04.06.2013 00:30 10,3 C 8,4 C 78 % 1026,4 hPa 0,0 l/m 0 min 0 min 0,0 UV-I 0 W/m 10,3 km/h (2 Bft)
04.06.2013 00:32 10,3 C 8,4 C 78 % 1026,4 hPa 0,0 l/m 0 min 0 min 0,0 UV-I 0 W/m 5,1 km/h (1 Bft)
04.06.2013 00:34 10,3 C 8,4 C 78 % 1026,5 hPa 0,0 l/m 0 min 0 min 0,0 UV-I 0 W/m 7,7 km/h (2 Bft)
04.06.2013 00:36 10,2 C 8,4 C 78 % 1026,5 hPa 0,0 l/m 0 min 0 min 0,0 UV-I 0 W/m 0,0 km/h (0 Bft)
04.06.2013 00:38 10,2 C 8,4 C 79 % 1026,4 hPa 0,0 l/m 0 min 0 min 0,0 UV-I 0 W/m 2,6 km/h (1 Bft)
04.06.2013 00:40 10,2 C 8,4 C 78 % 1026,5 hPa 0,0 l/m 0 min 0 min 0,0 UV-I 0 W/m 7,7 km/h (2 Bft)
04.06.2013 00:42 10,1 C 8,4 C 79 % 1026,4 hPa 0,0 l/m 0 min 0 min 0,0 UV-I 0 W/m 5,1 km/h (1 Bft)
04.06.2013 00:44 10,1 C 8,4 C 79 % 1026,4 hPa 0,0 l/m 0 min 0 min 0,0 UV-I 0 W/m 12,9 km/h (3 Bft)
04.06.2013 00:46 10,1 C 8,4 C 79 % 1026,4 hPa 0,0 l/m 0 min 0 min 0,0 UV-I 0 W/m 0,0 km/h (0 Bft)
04.06.2013 00:48 10,0 C 8,4 C 79 % 1026,4 hPa 0,0 l/m 0 min 0 min 0,0 UV-I 0 W/m 7,7 km/h (2 Bft)
04.06.2013 00:50 9,9 C 8,4 C 79 % 1026,4 hPa 0,0 l/m 0 min 0 min 0,0 UV-I 0 W/m 7,7 km/h (2 Bft)
04.06.2013 00:52 9,9 C 8,4 C 79 % 1026,4 hPa 0,0 l/m 0 min 0 min 0,0 UV-I 0 W/m 7,7 km/h (2 Bft)
04.06.2013 00:54 9,9 C 8,4 C 79 % 1026,4 hPa 0,0 l/m 0 min 0 min 0,0 UV-I 0 W/m 10,3 km/h (2 Bft)
04.06.2013 00:56 9,8 C 8,4 C 80 % 1026,4 hPa 0,0 l/m 0 min 0 min 0,0 UV-I 0 W/m 10,3 km/h (2 Bft)
04.06.2013 00:58 9,8 C 8,4 C 80 % 1026,4 hPa 0,0 l/m 0 min 0 min 0,0 UV-I 0 W/m 2,6 km/h (1 Bft)
04.06.2013 01:00 9,8 C 7,9 C 80 % 1026,3 hPa 0,0 l/m 0 min 0 min 0,0 UV-I 0 W/m 2,6 km/h (1 Bft)
04.06.2013 01:02 9,7 C 7,9 C 80 % 1026,3 hPa 0,0 l/m 0 min 0 min 0,0 UV-I 0 W/m 0,0 km/h (0 Bft)
04.06.2013 01:04 9,7 C 7,9 C 80 % 1026,3 hPa 0,0 l/m 0 min 0 min 0,0 UV-I 0 W/m 0,0 km/h (0 Bft)
04.06.2013 01:06 9,7 C 7,9 C 80 % 1026,3 hPa 0,0 l/m 0 min 0 min 0,0 UV-I 0 W/m 2,6 km/h (1 Bft)
04.06.2013 01:08 9,6 C 7,9 C 81 % 1026,3 hPa 0,0 l/m 0 min 0 min 0,0 UV-I 0 W/m 0,0 km/h (0 Bft)
04.06.2013 01:10 9,6 C 7,9 C 80 % 1026,4 hPa 0,0 l/m 0 min 0 min 0,0 UV-I 0 W/m 7,7 km/h (2 Bft)
04.06.2013 01:12 9,6 C 7,9 C 81 % 1026,4 hPa 0,0 l/m 0 min 0 min 0,0 UV-I 0 W/m 7,7 km/h (2 Bft)
04.06.2013 01:14 9,5 C 7,9 C 81 % 1026,4 hPa 0,0 l/m 0 min 0 min 0,0 UV-I 0 W/m 2,6 km/h (1 Bft)
04.06.2013 01:16 9,4 C 7,9 C 81 % 1026,4 hPa 0,0 l/m 0 min 0 min 0,0 UV-I 0 W/m 7,7 km/h (2 Bft)
04.06.2013 01:18 9,4 C 7,9 C 81 % 1026,4 hPa 0,0 l/m 0 min 0 min 0,0 UV-I 0 W/m 0,0 km/h (0 Bft)
04.06.2013 01:20 9,4 C 7,9 C 81 % 1026,3 hPa 0,0 l/m 0 min 0 min 0,0 UV-I 0 W/m 0,0 km/h (0 Bft)
04.06.2013 01:22 9,4 C 7,3 C 81 % 1026,4 hPa 0,0 l/m 0 min 0 min 0,0 UV-I 0 W/m 0,0 km/h (0 Bft)
04.06.2013 01:24 9,3 C 7,3 C 81 % 1026,4 hPa 0,0 l/m 0 min 0 min 0,0 UV-I 0 W/m 0,0 km/h (0 Bft)
04.06.2013 01:26 9,3 C 7,3 C 81 % 1026,4 hPa 0,0 l/m 0 min 0 min 0,0 UV-I 0 W/m 0,0 km/h (0 Bft)
04.06.2013 01:28 9,3 C 7,3 C 82 % 1026,4 hPa 0,0 l/m 0 min 0 min 0,0 UV-I 0 W/m 0,0 km/h (0 Bft)
04.06.2013 01:30 9,3 C 7,3 C 82 % 1026,3 hPa 0,0 l/m 0 min 0 min 0,0 UV-I 0 W/m 0,0 km/h (0 Bft)
04.06.2013 01:32 9,2 C 7,3 C 82 % 1026,3 hPa 0,0 l/m 0 min 0 min 0,0 UV-I 0 W/m 2,6 km/h (1 Bft)
04.06.2013 01:34 9,2 C 7,3 C 82 % 1026,4 hPa 0,0 l/m 0 min 0 min 0,0 UV-I 0 W/m 7,7 km/h (2 Bft)
04.06.2013 01:36 9,2 C 7,3 C 82 % 1026,3 hPa 0,0 l/m 0 min 0 min 0,0 UV-I 0 W/m 5,1 km/h (1 Bft)
04.06.2013 01:38 9,1 C 7,3 C 82 % 1026,2 hPa 0,0 l/m 0 min 0 min 0,0 UV-I 0 W/m 2,6 km/h (1 Bft)
04.06.2013 01:40 9,1 C 7,3 C 82 % 1026,3 hPa 0,0 l/m 0 min 0 min 0,0 UV-I 0 W/m 10,3 km/h (2 Bft)
04.06.2013 01:42 9,0 C 7,3 C 83 % 1026,3 hPa 0,0 l/m 0 min 0 min 0,0 UV-I 0 W/m 5,1 km/h (1 Bft)
04.06.2013 01:44 9,0 C 7,3 C 83 % 1026,3 hPa 0,0 l/m 0 min 0 min 0,0 UV-I 0 W/m 0,0 km/h (0 Bft)
04.06.2013 01:46 8,9 C 7,3 C 83 % 1026,3 hPa 0,0 l/m 0 min 0 min 0,0 UV-I 0 W/m 2,6 km/h (1 Bft)
04.06.2013 01:48 8,9 C 7,3 C 83 % 1026,3 hPa 0,0 l/m 0 min 0 min 0,0 UV-I 0 W/m 0,0 km/h (0 Bft)
04.06.2013 01:50 8,9 C 7,3 C 83 % 1026,3 hPa 0,0 l/m 0 min 0 min 0,0 UV-I 0 W/m 0,0 km/h (0 Bft)
04.06.2013 01:52 8,9 C 7,3 C 83 % 1026,2 hPa 0,0 l/m 0 min 0 min 0,0 UV-I 0 W/m 0,0 km/h (0 Bft)
04.06.2013 01:54 8,8 C 7,3 C 83 % 1026,2 hPa 0,0 l/m 0 min 0 min 0,0 UV-I 0 W/m 0,0 km/h (0 Bft)
04.06.2013 01:56 8,8 C 6,8 C 83 % 1026,2 hPa 0,0 l/m 0 min 0 min 0,0 UV-I 0 W/m 0,0 km/h (0 Bft)
04.06.2013 01:58 8,8 C 6,8 C 83 % 1026,2 hPa 0,0 l/m 0 min 0 min 0,0 UV-I 0 W/m 0,0 km/h (0 Bft)
04.06.2013 02:00 8,8 C 6,8 C 84 % 1026,3 hPa 0,0 l/m 0 min 0 min 0,0 UV-I 0 W/m 0,0 km/h (0 Bft)
04.06.2013 02:02 8,7 C 6,8 C 84 % 1026,2 hPa 0,0 l/m 0 min 0 min 0,0 UV-I 0 W/m 0,0 km/h (0 Bft)
04.06.2013 02:04 8,7 C 6,8 C 84 % 1026,3 hPa 0,0 l/m 0 min 0 min 0,0 UV-I 0 W/m 0,0 km/h (0 Bft)
04.06.2013 02:06 8,7 C 6,8 C 84 % 1026,2 hPa 0,0 l/m 0 min 0 min 0,0 UV-I 0 W/m 0,0 km/h (0 Bft)
04.06.2013 02:08 8,6 C 6,2 C 84 % 1026,3 hPa 0,0 l/m 0 min 0 min 0,0 UV-I 0 W/m 0,0 km/h (0 Bft)
04.06.2013 02:10 8,6 C 6,2 C 84 % 1026,3 hPa 0,0 l/m 0 min 0 min 0,0 UV-I 0 W/m 0,0 km/h (0 Bft)
04.06.2013 02:12 8,6 C 6,2 C 84 % 1026,3 hPa 0,0 l/m 0 min 0 min 0,0 UV-I 0 W/m 2,6 km/h (1 Bft)
04.06.2013 02:14 8,6 C 6,2 C 84 % 1026,3 hPa 0,0 l/m 0 min 0 min 0,0 UV-I 0 W/m 0,0 km/h (0 Bft)
04.06.2013 02:16 8,5 C 6,2 C 84 % 1026,3 hPa 0,0 l/m 0 min 0 min 0,0 UV-I 0 W/m 0,0 km/h (0 Bft)
04.06.2013 02:18 8,5 C 6,2 C 84 % 1026,3 hPa 0,0 l/m 0 min 0 min 0,0 UV-I 0 W/m 0,0 km/h (0 Bft)
04.06.2013 02:20 8,4 C 6,2 C 84 % 1026,3 hPa 0,0 l/m 0 min 0 min 0,0 UV-I 0 W/m 0,0 km/h (0 Bft)
04.06.2013 02:22 8,4 C 6,2 C 84 % 1026,3 hPa 0,0 l/m 0 min 0 min 0,0 UV-I 0 W/m 0,0 km/h (0 Bft)
04.06.2013 02:24 8,3 C 6,2 C 84 % 1026,2 hPa 0,0 l/m 0 min 0 min 0,0 UV-I 0 W/m 0,0 km/h (0 Bft)
04.06.2013 02:26 8,3 C 6,2 C 84 % 1026,2 hPa 0,0 l/m 0 min 0 min 0,0 UV-I 0 W/m 0,0 km/h (0 Bft)
04.06.2013 02:28 8,3 C 6,2 C 85 % 1026,2 hPa 0,0 l/m 0 min 0 min 0,0 UV-I 0 W/m 0,0 km/h (0 Bft)
04.06.2013 02:30 8,3 C 6,2 C 85 % 1026,1 hPa 0,0 l/m 0 min 0 min 0,0 UV-I 0 W/m 0,0 km/h (0 Bft)
04.06.2013 02:32 8,2 C 6,2 C 85 % 1026,2 hPa 0,0 l/m 0 min 0 min 0,0 UV-I 0 W/m 0,0 km/h (0 Bft)
04.06.2013 02:34 8,2 C 6,2 C 85 % 1026,2 hPa 0,0 l/m 0 min 0 min 0,0 UV-I 0 W/m 2,6 km/h (1 Bft)
04.06.2013 02:36 8,2 C 6,2 C 85 % 1026,2 hPa 0,0 l/m 0 min 0 min 0,0 UV-I 0 W/m 0,0 km/h (0 Bft)
04.06.2013 02:38 8,1 C 6,2 C 86 % 1026,1 hPa 0,0 l/m 0 min 0 min 0,0 UV-I 0 W/m 0,0 km/h (0 Bft)
04.06.2013 02:40 8,1 C 6,2 C 86 % 1026,2 hPa 0,0 l/m 0 min 0 min 0,0 UV-I 0 W/m 2,6 km/h (1 Bft)
04.06.2013 02:42 8,1 C 6,2 C 86 % 1026,2 hPa 0,0 l/m 0 min 0 min 0,0 UV-I 0 W/m 0,0 km/h (0 Bft)
04.06.2013 02:44 8,1 C 6,2 C 86 % 1026,1 hPa 0,0 l/m 0 min 0 min 0,0 UV-I 0 W/m 0,0 km/h (0 Bft)
04.06.2013 02:46 8,0 C 6,2 C 86 % 1026,2 hPa 0,0 l/m 0 min 0 min 0,0 UV-I 0 W/m 0,0 km/h (0 Bft)
04.06.2013 02:48 8,0 C 6,2 C 86 % 1026,1 hPa 0,0 l/m 0 min 0 min 0,0 UV-I 0 W/m 2,6 km/h (1 Bft)
04.06.2013 02:50 7,9 C 6,2 C 87 % 1026,1 hPa 0,0 l/m 0 min 0 min 0,0 UV-I 0 W/m 0,0 km/h (0 Bft)
04.06.2013 02:52 7,9 C 6,2 C 87 % 1026,1 hPa 0,0 l/m 0 min 0 min 0,0 UV-I 0 W/m 0,0 km/h (0 Bft)
04.06.2013 02:54 7,9 C 6,2 C 87 % 1026,1 hPa 0,0 l/m 0 min 0 min 0,0 UV-I 0 W/m 0,0 km/h (0 Bft)
04.06.2013 02:56 7,9 C 6,2 C 87 % 1026,1 hPa 0,0 l/m 0 min 0 min 0,0 UV-I 0 W/m 0,0 km/h (0 Bft)
04.06.2013 02:58 7,9 C 6,2 C 87 % 1026,1 hPa 0,0 l/m 0 min 0 min 0,0 UV-I 0 W/m 2,6 km/h (1 Bft)
04.06.2013 03:00 7,8 C 6,2 C 87 % 1025,9 hPa 0,0 l/m 0 min 0 min 0,0 UV-I 0 W/m 0,0 km/h (0 Bft)
04.06.2013 03:02 7,8 C 6,2 C 87 % 1025,9 hPa 0,0 l/m 0 min 0 min 0,0 UV-I 0 W/m 0,0 km/h (0 Bft)
04.06.2013 03:04 7,8 C 6,2 C 87 % 1025,8 hPa 0,0 l/m 0 min 0 min 0,0 UV-I 0 W/m 7,7 km/h (2 Bft)
04.06.2013 03:06 7,8 C 6,2 C 88 % 1025,9 hPa 0,0 l/m 0 min 0 min 0,0 UV-I 0 W/m 7,7 km/h (2 Bft)
04.06.2013 03:08 7,8 C 6,2 C 88 % 1026,0 hPa 0,0 l/m 0 min 0 min 0,0 UV-I 0 W/m 10,3 km/h (2 Bft)
04.06.2013 03:10 7,7 C 6,2 C 88 % 1025,9 hPa 0,0 l/m 0 min 0 min 0,0 UV-I 0 W/m 0,0 km/h (0 Bft)
04.06.2013 03:12 7,7 C 6,2 C 88 % 1025,8 hPa 0,0 l/m 0 min 0 min 0,0 UV-I 0 W/m 0,0 km/h (0 Bft)
04.06.2013 03:14 7,7 C 6,2 C 88 % 1025,8 hPa 0,0 l/m 0 min 0 min 0,0 UV-I 0 W/m 5,1 km/h (1 Bft)
04.06.2013 03:16 7,7 C 6,2 C 88 % 1025,8 hPa 0,0 l/m 0 min 0 min 0,0 UV-I 0 W/m 5,1 km/h (1 Bft)
04.06.2013 03:18 7,7 C 6,2 C 88 % 1025,8 hPa 0,0 l/m 0 min 0 min 0,0 UV-I 0 W/m 0,0 km/h (0 Bft)
04.06.2013 03:20 7,7 C 6,2 C 88 % 1025,8 hPa 0,0 l/m 0 min 0 min 0,0 UV-I 0 W/m 0,0 km/h (0 Bft)
04.06.2013 03:22 7,6 C 6,2 C 89 % 1025,8 hPa 0,0 l/m 0 min 0 min 0,0 UV-I 0 W/m 0,0 km/h (0 Bft)
04.06.2013 03:24 7,6 C 6,2 C 89 % 1025,8 hPa 0,0 l/m 0 min 0 min 0,0 UV-I 0 W/m 0,0 km/h (0 Bft)
04.06.2013 03:26 7,6 C 6,2 C 89 % 1025,7 hPa 0,0 l/m 0 min 0 min 0,0 UV-I 0 W/m 2,6 km/h (1 Bft)
04.06.2013 03:28 7,6 C 6,2 C 89 % 1025,7 hPa 0,0 l/m 0 min 0 min 0,0 UV-I 0 W/m 0,0 km/h (0 Bft)
04.06.2013 03:30 7,5 C 5,7 C 89 % 1025,7 hPa 0,0 l/m 0 min 0 min 0,0 UV-I 0 W/m 0,0 km/h (0 Bft)
04.06.2013 03:32 7,5 C 5,7 C 89 % 1025,7 hPa 0,0 l/m 0 min 0 min 0,0 UV-I 0 W/m 0,0 km/h (0 Bft)
04.06.2013 03:34 7,4 C 5,7 C 89 % 1025,7 hPa 0,0 l/m 0 min 0 min 0,0 UV-I 0 W/m 0,0 km/h (0 Bft)
04.06.2013 03:36 7,4 C 5,7 C 89 % 1025,6 hPa 0,0 l/m 0 min 0 min 0,0 UV-I 0 W/m 0,0 km/h (0 Bft)
04.06.2013 03:38 7,4 C 5,7 C 89 % 1025,6 hPa 0,0 l/m 0 min 0 min 0,0 UV-I 0 W/m 0,0 km/h (0 Bft)
04.06.2013 03:40 7,4 C 5,7 C 89 % 1025,7 hPa 0,0 l/m 0 min 0 min 0,0 UV-I 0 W/m 0,0 km/h (0 Bft)
04.06.2013 03:42 7,3 C 5,7 C 89 % 1025,7 hPa 0,0 l/m 0 min 0 min 0,0 UV-I 0 W/m 0,0 km/h (0 Bft)
04.06.2013 03:44 7,3 C 5,7 C 89 % 1025,6 hPa 0,0 l/m 0 min 0 min 0,0 UV-I 0 W/m 0,0 km/h (0 Bft)
04.06.2013 03:46 7,3 C 5,7 C 89 % 1025,6 hPa 0,0 l/m 0 min 0 min 0,0 UV-I 0 W/m 0,0 km/h (0 Bft)
04.06.2013 03:48 7,3 C 5,7 C 89 % 1025,7 hPa 0,0 l/m 0 min 0 min 0,0 UV-I 0 W/m 0,0 km/h (0 Bft)
04.06.2013 03:50 7,2 C 5,7 C 89 % 1025,6 hPa 0,0 l/m 0 min 0 min 0,0 UV-I 0 W/m 0,0 km/h (0 Bft)
04.06.2013 03:52 7,2 C 5,7 C 89 % 1025,6 hPa 0,0 l/m 0 min 0 min 0,0 UV-I 0 W/m 0,0 km/h (0 Bft)
04.06.2013 03:54 7,2 C 5,7 C 89 % 1025,5 hPa 0,0 l/m 0 min 0 min 0,0 UV-I 0 W/m 0,0 km/h (0 Bft)
04.06.2013 03:56 7,2 C 5,7 C 89 % 1025,6 hPa 0,0 l/m 0 min 0 min 0,0 UV-I 0 W/m 2,6 km/h (1 Bft)
04.06.2013 03:58 7,2 C 5,7 C 89 % 1025,6 hPa 0,0 l/m 0 min 0 min 0,0 UV-I 0 W/m 0,0 km/h (0 Bft)
04.06.2013 04:00 7,1 C 5,7 C 89 % 1025,5 hPa 0,0 l/m 0 min 0 min 0,0 UV-I 0 W/m 0,0 km/h (0 Bft)
04.06.2013 04:05 7,1 C 5,7 C 89 % 1025,4 hPa 0,0 l/m 0 min 0 min 0,0 UV-I 0 W/m 0,0 km/h (0 Bft)
04.06.2013 04:06 7,1 C 5,7 C 89 % 1025,4 hPa 0,0 l/m 0 min 0 min 0,0 UV-I 0 W/m 0,0 km/h (0 Bft)
04.06.2013 04:08 7,1 C 5,7 C 89 % 1025,3 hPa 0,0 l/m 0 min 0 min 0,0 UV-I 0 W/m 0,0 km/h (0 Bft)
04.06.2013 04:10 7,1 C 5,7 C 90 % 1025,4 hPa 0,0 l/m 0 min 0 min 0,0 UV-I 0 W/m 0,0 km/h (0 Bft)
04.06.2013 04:12 7,1 C 6,2 C 90 % 1025,3 hPa 0,0 l/m 0 min 0 min 0,0 UV-I 0 W/m 0,0 km/h (0 Bft)
04.06.2013 04:14 7,1 C 6,2 C 90 % 1025,3 hPa 0,0 l/m 0 min 0 min 0,0 UV-I 0 W/m 0,0 km/h (0 Bft)
04.06.2013 04:16 7,1 C 6,2 C 90 % 1025,2 hPa 0,0 l/m 0 min 0 min 0,0 UV-I 0 W/m 0,0 km/h (0 Bft)
04.06.2013 04:18 7,1 C 6,2 C 90 % 1025,2 hPa 0,0 l/m 0 min 0 min 0,0 UV-I 0 W/m 0,0 km/h (0 Bft)
04.06.2013 04:20 7,1 C 6,2 C 90 % 1025,2 hPa 0,0 l/m 0 min 0 min 0,0 UV-I 0 W/m 0,0 km/h (0 Bft)
04.06.2013 04:22 7,1 C 6,8 C 90 % 1025,2 hPa 0,0 l/m 0 min 0 min 0,0 UV-I 0 W/m 0,0 km/h (0 Bft)
04.06.2013 04:24 7,1 C 6,8 C 90 % 1025,2 hPa 0,0 l/m 0 min 0 min 0,0 UV-I 0 W/m 0,0 km/h (0 Bft)
04.06.2013 04:26 7,1 C 6,8 C 90 % 1025,2 hPa 0,0 l/m 0 min 0 min 0,0 UV-I 0 W/m 0,0 km/h (0 Bft)
04.06.2013 04:28 7,1 C 6,8 C 90 % 1025,2 hPa 0,0 l/m 0 min 0 min 0,0 UV-I 0 W/m 0,0 km/h (0 Bft)
04.06.2013 04:30 7,1 C 6,8 C 90 % 1025,1 hPa 0,0 l/m 0 min 0 min 0,0 UV-I 0 W/m 0,0 km/h (0 Bft)
04.06.2013 04:32 7,1 C 6,8 C 90 % 1025,1 hPa 0,0 l/m 0 min 0 min 0,0 UV-I 0 W/m 0,0 km/h (0 Bft)
04.06.2013 04:34 7,1 C 6,8 C 90 % 1025,2 hPa 0,0 l/m 0 min 0 min 0,0 UV-I 0 W/m 0,0 km/h (0 Bft)
04.06.2013 04:36 7,1 C 6,8 C 90 % 1025,1 hPa 0,0 l/m 0 min 0 min 0,0 UV-I 0 W/m 0,0 km/h (0 Bft)
04.06.2013 04:38 7,2 C 6,8 C 91 % 1025,2 hPa 0,0 l/m 0 min 0 min 0,0 UV-I 0 W/m 0,0 km/h (0 Bft)
04.06.2013 04:40 7,2 C 6,8 C 91 % 1025,1 hPa 0,0 l/m 0 min 0 min 0,0 UV-I 0 W/m 0,0 km/h (0 Bft)
04.06.2013 04:42 7,2 C 6,8 C 91 % 1025,1 hPa 0,0 l/m 0 min 0 min 0,0 UV-I 0 W/m 0,0 km/h (0 Bft)
04.06.2013 04:44 7,2 C 6,8 C 91 % 1025,1 hPa 0,0 l/m 0 min 0 min 0,0 UV-I 0 W/m 0,0 km/h (0 Bft)
04.06.2013 04:46 7,2 C 6,8 C 91 % 1025,0 hPa 0,0 l/m 0 min 0 min 0,0 UV-I 0 W/m 0,0 km/h (0 Bft)
04.06.2013 04:48 7,2 C 6,8 C 91 % 1025,1 hPa 0,0 l/m 0 min 0 min 0,0 UV-I 0 W/m 0,0 km/h (0 Bft)
04.06.2013 04:50 7,2 C 6,8 C 91 % 1025,0 hPa 0,0 l/m 0 min 0 min 0,0 UV-I 0 W/m 0,0 km/h (0 Bft)
04.06.2013 04:52 7,3 C 6,8 C 91 % 1025,0 hPa 0,0 l/m 0 min 0 min 0,0 UV-I 0 W/m 0,0 km/h (0 Bft)
04.06.2013 04:54 7,3 C 6,8 C 91 % 1025,1 hPa 0,0 l/m 0 min 0 min 0,0 UV-I 0 W/m 0,0 km/h (0 Bft)
04.06.2013 04:56 7,3 C 6,8 C 91 % 1025,0 hPa 0,0 l/m 0 min 0 min 0,0 UV-I 0 W/m 0,0 km/h (0 Bft)
04.06.2013 04:58 7,3 C 6,8 C 91 % 1025,0 hPa 0,0 l/m 0 min 0 min 0,0 UV-I 0 W/m 0,0 km/h (0 Bft)
04.06.2013 05:00 7,3 C 7,3 C 91 % 1025,1 hPa 0,0 l/m 0 min 0 min 0,0 UV-I 0 W/m 0,0 km/h (0 Bft)
04.06.2013 05:02 7,3 C 7,3 C 91 % 1025,0 hPa 0,0 l/m 0 min 0 min 0,0 UV-I 0 W/m 0,0 km/h (0 Bft)
04.06.2013 05:04 7,4 C 7,3 C 91 % 1025,1 hPa 0,0 l/m 0 min 0 min 0,0 UV-I 0 W/m 0,0 km/h (0 Bft)
04.06.2013 05:06 7,4 C 7,3 C 91 % 1025,1 hPa 0,0 l/m 0 min 0 min 0,0 UV-I 0 W/m 0,0 km/h (0 Bft)
04.06.2013 05:08 7,4 C 7,3 C 92 % 1025,0 hPa 0,0 l/m 0 min 0 min 0,0 UV-I 0 W/m 2,6 km/h (1 Bft)
04.06.2013 05:10 7,4 C 7,3 C 92 % 1024,9 hPa 0,0 l/m 0 min 0 min 0,0 UV-I 0 W/m 0,0 km/h (0 Bft)
04.06.2013 05:12 7,5 C 7,3 C 92 % 1024,9 hPa 0,0 l/m 0 min 0 min 0,0 UV-I 0 W/m 0,0 km/h (0 Bft)
04.06.2013 05:14 7,5 C 7,3 C 92 % 1024,9 hPa 0,0 l/m 0 min 0 min 0,0 UV-I 0 W/m 0,0 km/h (0 Bft)
04.06.2013 05:16 7,6 C 7,3 C 92 % 1024,9 hPa 0,0 l/m 0 min 0 min 0,0 UV-I 0 W/m 0,0 km/h (0 Bft)
04.06.2013 05:18 7,6 C 7,3 C 92 % 1024,8 hPa 0,0 l/m 0 min 0 min 0,0 UV-I 0 W/m 0,0 km/h (0 Bft)
04.06.2013 05:20 7,6 C 7,3 C 92 % 1024,8 hPa 0,0 l/m 0 min 0 min 0,0 UV-I 0 W/m 0,0 km/h (0 Bft)
04.06.2013 05:22 7,6 C 7,3 C 92 % 1024,9 hPa 0,0 l/m 0 min 0 min 0,0 UV-I 0 W/m 7,7 km/h (2 Bft)
04.06.2013 05:24 7,7 C 7,3 C 92 % 1024,9 hPa 0,0 l/m 0 min 0 min 0,0 UV-I 5 W/m 7,7 km/h (2 Bft)
04.06.2013 05:26 7,7 C 7,3 C 91 % 1024,9 hPa 0,0 l/m 0 min 0 min 0,0 UV-I 5 W/m 2,6 km/h (1 Bft)
04.06.2013 05:28 7,7 C 7,3 C 91 % 1024,8 hPa 0,0 l/m 0 min 0 min 0,0 UV-I 5 W/m 2,6 km/h (1 Bft)
04.06.2013 05:30 7,7 C 7,3 C 91 % 1024,9 hPa 0,0 l/m 0 min 0 min 0,0 UV-I 5 W/m 0,0 km/h (0 Bft)
04.06.2013 05:32 7,8 C 7,3 C 91 % 1024,9 hPa 0,0 l/m 0 min 0 min 0,0 UV-I 5 W/m 0,0 km/h (0 Bft)
04.06.2013 05:34 7,8 C 7,9 C 91 % 1024,8 hPa 0,0 l/m 0 min 0 min 0,0 UV-I 5 W/m 5,1 km/h (1 Bft)
04.06.2013 05:36 7,8 C 7,9 C 91 % 1024,8 hPa 0,0 l/m 0 min 0 min 0,0 UV-I 7 W/m 0,0 km/h (0 Bft)
04.06.2013 05:38 7,8 C 7,9 C 91 % 1024,8 hPa 0,0 l/m 0 min 0 min 0,0 UV-I 7 W/m 5,1 km/h (1 Bft)
04.06.2013 05:40 7,9 C 7,9 C 91 % 1024,9 hPa 0,0 l/m 0 min 0 min 0,0 UV-I 7 W/m 2,6 km/h (1 Bft)
04.06.2013 05:42 7,9 C 7,9 C 91 % 1024,8 hPa 0,0 l/m 0 min 0 min 0,0 UV-I 7 W/m 5,1 km/h (1 Bft)
04.06.2013 05:44 7,9 C 7,9 C 91 % 1024,8 hPa 0,0 l/m 0 min 0 min 0,0 UV-I 7 W/m 0,0 km/h (0 Bft)
04.06.2013 05:46 8,0 C 7,9 C 90 % 1024,9 hPa 0,0 l/m 0 min 0 min 0,0 UV-I 7 W/m 0,0 km/h (0 Bft)
04.06.2013 05:48 8,0 C 7,9 C 90 % 1024,9 hPa 0,0 l/m 0 min 0 min 0,0 UV-I 9 W/m 0,0 km/h (0 Bft)
04.06.2013 05:50 8,1 C 7,9 C 90 % 1024,8 hPa 0,0 l/m 0 min 0 min 0,0 UV-I 9 W/m 0,0 km/h (0 Bft)
04.06.2013 05:52 8,1 C 7,9 C 90 % 1024,8 hPa 0,0 l/m 0 min 0 min 0,0 UV-I 11 W/m 0,0 km/h (0 Bft)
04.06.2013 05:54 8,1 C 7,9 C 90 % 1024,7 hPa 0,0 l/m 0 min 0 min 0,0 UV-I 11 W/m 0,0 km/h (0 Bft)
04.06.2013 05:56 8,2 C 7,9 C 90 % 1024,8 hPa 0,0 l/m 0 min 0 min 0,0 UV-I 11 W/m 0,0 km/h (0 Bft)
04.06.2013 05:58 8,2 C 7,9 C 90 % 1024,8 hPa 0,0 l/m 0 min 0 min 0,0 UV-I 12 W/m 0,0 km/h (0 Bft)
04.06.2013 06:00 8,2 C 7,9 C 90 % 1024,8 hPa 0,0 l/m 0 min 0 min 0,0 UV-I 12 W/m 2,6 km/h (1 Bft)
04.06.2013 06:02 8,2 C 7,9 C 90 % 1024,8 hPa 0,0 l/m 0 min 0 min 0,0 UV-I 14 W/m 10,3 km/h (2 Bft)
04.06.2013 06:04 8,2 C 7,9 C 90 % 1024,8 hPa 0,0 l/m 0 min 0 min 0,0 UV-I 12 W/m 10,3 km/h (2 Bft)
04.06.2013 06:06 8,3 C 7,9 C 89 % 1024,8 hPa 0,0 l/m 0 min 0 min 0,0 UV-I 12 W/m 10,3 km/h (2 Bft)
04.06.2013 06:08 8,3 C 7,9 C 89 % 1024,8 hPa 0,0 l/m 0 min 0 min 0,0 UV-I 14 W/m 5,1 km/h (1 Bft)
04.06.2013 06:10 8,3 C 7,9 C 89 % 1024,7 hPa 0,0 l/m 0 min 0 min 0,0 UV-I 14 W/m 0,0 km/h (0 Bft)
04.06.2013 06:12 8,3 C 7,9 C 89 % 1024,8 hPa 0,0 l/m 0 min 0 min 0,0 UV-I 14 W/m 0,0 km/h (0 Bft)
04.06.2013 06:14 8,3 C 7,9 C 89 % 1024,8 hPa 0,0 l/m 0 min 0 min 0,0 UV-I 14 W/m 5,1 km/h (1 Bft)
04.06.2013 06:16 8,4 C 7,9 C 88 % 1024,7 hPa 0,0 l/m 0 min 0 min 0,0 UV-I 16 W/m 5,1 km/h (1 Bft)
04.06.2013 06:18 8,4 C 7,9 C 88 % 1024,7 hPa 0,0 l/m 0 min 0 min 0,0 UV-I 18 W/m 7,7 km/h (2 Bft)
04.06.2013 06:20 8,4 C 8,4 C 88 % 1024,8 hPa 0,0 l/m 0 min 0 min 0,0 UV-I 18 W/m 0,0 km/h (0 Bft)
04.06.2013 06:22 8,5 C 8,4 C 88 % 1024,7 hPa 0,0 l/m 0 min 0 min 0,0 UV-I 19 W/m 0,0 km/h (0 Bft)
04.06.2013 06:24 8,5 C 8,4 C 87 % 1024,7 hPa 0,0 l/m 0 min 0 min 0,0 UV-I 19 W/m 7,7 km/h (2 Bft)
04.06.2013 06:26 8,6 C 8,4 C 87 % 1024,8 hPa 0,0 l/m 0 min 0 min 0,0 UV-I 19 W/m 10,3 km/h (2 Bft)
04.06.2013 06:28 8,6 C 8,4 C 87 % 1024,7 hPa 0,0 l/m 0 min 0 min 0,0 UV-I 21 W/m 0,0 km/h (0 Bft)
04.06.2013 06:30 8,6 C 8,4 C 87 % 1024,7 hPa 0,0 l/m 0 min 0 min 0,0 UV-I 21 W/m 2,6 km/h (1 Bft)
04.06.2013 06:32 8,6 C 8,4 C 87 % 1024,7 hPa 0,0 l/m 0 min 0 min 0,0 UV-I 23 W/m 0,0 km/h (0 Bft)
04.06.2013 06:34 8,6 C 8,4 C 87 % 1024,7 hPa 0,0 l/m 0 min 0 min 0,0 UV-I 25 W/m 2,6 km/h (1 Bft)
04.06.2013 06:36 8,7 C 8,4 C 87 % 1024,6 hPa 0,0 l/m 0 min 0 min 0,0 UV-I 25 W/m 7,7 km/h (2 Bft)
04.06.2013 06:38 8,7 C 8,4 C 86 % 1024,6 hPa 0,0 l/m 0 min 0 min 0,0 UV-I 26 W/m 12,9 km/h (3 Bft)
04.06.2013 06:40 8,7 C 8,4 C 86 % 1024,6 hPa 0,0 l/m 0 min 0 min 0,0 UV-I 26 W/m 7,7 km/h (2 Bft)
04.06.2013 06:42 8,7 C 8,4 C 86 % 1024,6 hPa 0,0 l/m 0 min 0 min 0,0 UV-I 28 W/m 7,7 km/h (2 Bft)
04.06.2013 06:44 8,8 C 8,4 C 86 % 1024,6 hPa 0,0 l/m 0 min 0 min 0,0 UV-I 28 W/m 5,1 km/h (1 Bft)
04.06.2013 06:46 8,8 C 8,4 C 86 % 1024,6 hPa 0,0 l/m 0 min 0 min 0,0 UV-I 28 W/m 0,0 km/h (0 Bft)
04.06.2013 06:48 8,8 C 8,4 C 86 % 1024,6 hPa 0,0 l/m 0 min 0 min 0,0 UV-I 30 W/m 7,7 km/h (2 Bft)
04.06.2013 06:50 8,8 C 8,4 C 86 % 1024,6 hPa 0,0 l/m 0 min 0 min 0,0 UV-I 30 W/m 0,0 km/h (0 Bft)
04.06.2013 06:52 8,8 C 8,4 C 85 % 1024,7 hPa 0,0 l/m 0 min 0 min 0,0 UV-I 30 W/m 18,0 km/h (3 Bft)
04.06.2013 06:54 8,8 C 8,4 C 85 % 1024,5 hPa 0,0 l/m 0 min 0 min 0,0 UV-I 30 W/m 10,3 km/h (2 Bft)
04.06.2013 06:56 8,8 C 8,4 C 85 % 1024,6 hPa 0,0 l/m 0 min 0 min 0,0 UV-I 30 W/m 10,3 km/h (2 Bft)
04.06.2013 06:58 8,9 C 8,4 C 85 % 1024,5 hPa 0,0 l/m 0 min 0 min 0,0 UV-I 30 W/m 10,3 km/h (2 Bft)
04.06.2013 07:00 8,9 C 8,4 C 85 % 1024,6 hPa 0,0 l/m 0 min 0 min 0,0 UV-I 30 W/m 7,7 km/h (2 Bft)
04.06.2013 07:02 8,9 C 8,4 C 85 % 1024,5 hPa 0,0 l/m 0 min 0 min 0,0 UV-I 28 W/m 7,7 km/h (2 Bft)
04.06.2013 07:04 8,9 C 8,4 C 85 % 1024,5 hPa 0,0 l/m 0 min 0 min 0,0 UV-I 28 W/m 7,7 km/h (2 Bft)
04.06.2013 07:06 8,9 C 8,4 C 85 % 1024,4 hPa 0,0 l/m 0 min 0 min 0,0 UV-I 30 W/m 5,1 km/h (1 Bft)
04.06.2013 07:08 8,9 C 8,4 C 85 % 1024,5 hPa 0,0 l/m 0 min 0 min 0,0 UV-I 30 W/m 5,1 km/h (1 Bft)
04.06.2013 07:10 9,0 C 8,4 C 85 % 1024,5 hPa 0,0 l/m 0 min 0 min 0,0 UV-I 32 W/m 7,7 km/h (2 Bft)
04.06.2013 07:12 9,0 C 8,4 C 85 % 1024,4 hPa 0,0 l/m 0 min 0 min 0,0 UV-I 32 W/m 7,7 km/h (2 Bft)
04.06.2013 07:14 9,0 C 8,4 C 85 % 1024,4 hPa 0,0 l/m 0 min 0 min 0,0 UV-I 32 W/m 0,0 km/h (0 Bft)
04.06.2013 07:16 9,0 C 8,4 C 85 % 1024,4 hPa 0,0 l/m 0 min 0 min 0,0 UV-I 32 W/m 2,6 km/h (1 Bft)
04.06.2013 07:18 9,0 C 8,4 C 85 % 1024,4 hPa 0,0 l/m 0 min 0 min 0,0 UV-I 32 W/m 12,9 km/h (3 Bft)
04.06.2013 07:20 9,1 C 8,4 C 85 % 1024,5 hPa 0,0 l/m 0 min 0 min 0,0 UV-I 33 W/m 12,9 km/h (3 Bft)
04.06.2013 07:22 9,1 C 8,4 C 85 % 1024,4 hPa 0,0 l/m 0 min 0 min 0,0 UV-I 33 W/m 12,9 km/h (3 Bft)
04.06.2013 07:24 9,1 C 8,4 C 85 % 1024,4 hPa 0,0 l/m 0 min 0 min 0,0 UV-I 35 W/m 7,7 km/h (2 Bft)
04.06.2013 07:26 9,1 C 8,4 C 85 % 1024,4 hPa 0,0 l/m 0 min 0 min 0,0 UV-I 37 W/m 5,1 km/h (1 Bft)
04.06.2013 07:28 9,1 C 8,4 C 85 % 1024,4 hPa 0,0 l/m 0 min 0 min 0,0 UV-I 37 W/m 15,4 km/h (3 Bft)
04.06.2013 07:30 9,1 C 8,4 C 85 % 1024,4 hPa 0,0 l/m 0 min 0 min 0,0 UV-I 37 W/m 12,9 km/h (3 Bft)
04.06.2013 07:32 9,1 C 8,4 C 85 % 1024,4 hPa 0,0 l/m 0 min 0 min 0,0 UV-I 39 W/m 15,4 km/h (3 Bft)
04.06.2013 07:34 9,1 C 8,4 C 85 % 1024,5 hPa 0,0 l/m 0 min 0 min 0,0 UV-I 40 W/m 0,0 km/h (0 Bft)
04.06.2013 07:36 9,1 C 8,4 C 85 % 1024,4 hPa 0,0 l/m 0 min 0 min 0,0 UV-I 39 W/m 0,0 km/h (0 Bft)
04.06.2013 07:38 9,1 C 8,4 C 85 % 1024,5 hPa 0,0 l/m 0 min 0 min 0,0 UV-I 40 W/m 12,9 km/h (3 Bft)
04.06.2013 07:40 9,1 C 8,4 C 85 % 1024,5 hPa 0,0 l/m 0 min 0 min 0,0 UV-I 42 W/m 10,3 km/h (2 Bft)
04.06.2013 07:42 9,2 C 9,0 C 85 % 1024,4 hPa 0,0 l/m 0 min 0 min 0,0 UV-I 44 W/m 0,0 km/h (0 Bft)
04.06.2013 07:44 9,2 C 9,0 C 85 % 1024,4 hPa 0,0 l/m 0 min 0 min 0,0 UV-I 47 W/m 7,7 km/h (2 Bft)
04.06.2013 07:46 9,2 C 9,0 C 85 % 1024,4 hPa 0,0 l/m 0 min 0 min 0,0 UV-I 47 W/m 7,7 km/h (2 Bft)
04.06.2013 07:48 9,2 C 9,0 C 85 % 1024,5 hPa 0,0 l/m 0 min 0 min 0,0 UV-I 47 W/m 7,7 km/h (2 Bft)
04.06.2013 07:50 9,2 C 9,0 C 85 % 1024,5 hPa 0,0 l/m 0 min 0 min 0,0 UV-I 49 W/m 7,7 km/h (2 Bft)
04.06.2013 07:52 9,2 C 9,0 C 85 % 1024,4 hPa 0,0 l/m 0 min 0 min 0,0 UV-I 51 W/m 0,0 km/h (0 Bft)
04.06.2013 07:54 9,2 C 9,0 C 85 % 1024,4 hPa 0,0 l/m 0 min 0 min 0,0 UV-I 53 W/m 0,0 km/h (0 Bft)
04.06.2013 07:56 9,2 C 9,0 C 85 % 1024,4 hPa 0,0 l/m 0 min 0 min 0,0 UV-I 54 W/m 7,7 km/h (2 Bft)
04.06.2013 07:58 9,3 C 9,0 C 85 % 1024,4 hPa 0,0 l/m 0 min 0 min 0,0 UV-I 56 W/m 7,7 km/h (2 Bft)
04.06.2013 08:00 9,3 C 9,0 C 85 % 1024,4 hPa 0,0 l/m 0 min 0 min 0,0 UV-I 58 W/m 0,0 km/h (0 Bft)
04.06.2013 08:02 9,3 C 9,0 C 85 % 1024,4 hPa 0,0 l/m 0 min 0 min 0,0 UV-I 58 W/m 0,0 km/h (0 Bft)
04.06.2013 08:04 9,3 C 9,0 C 85 % 1024,4 hPa 0,0 l/m 0 min 0 min 0,0 UV-I 60 W/m 0,0 km/h (0 Bft)
04.06.2013 08:06 9,3 C 9,0 C 85 % 1024,4 hPa 0,0 l/m 0 min 0 min 0,0 UV-I 63 W/m 10,3 km/h (2 Bft)
04.06.2013 08:08 9,3 C 9,0 C 86 % 1024,3 hPa 0,0 l/m 0 min 0 min 0,0 UV-I 67 W/m 12,9 km/h (3 Bft)
04.06.2013 08:10 9,3 C 9,0 C 86 % 1024,3 hPa 0,0 l/m 0 min 0 min 0,0 UV-I 72 W/m 5,1 km/h (1 Bft)
04.06.2013 08:12 9,3 C 9,0 C 86 % 1024,3 hPa 0,0 l/m 0 min 0 min 0,0 UV-I 72 W/m 0,0 km/h (0 Bft)
04.06.2013 08:14 9,4 C 9,0 C 85 % 1024,3 hPa 0,0 l/m 0 min 0 min 0,0 UV-I 76 W/m 10,3 km/h (2 Bft)
04.06.2013 08:16 9,4 C 9,0 C 86 % 1024,3 hPa 0,0 l/m 0 min 0 min 0,0 UV-I 77 W/m 5,1 km/h (1 Bft)
04.06.2013 08:18 9,4 C 9,6 C 86 % 1024,3 hPa 0,0 l/m 0 min 0 min 0,0 UV-I 83 W/m 2,6 km/h (1 Bft)
04.06.2013 08:20 9,4 C 9,6 C 86 % 1024,3 hPa 0,0 l/m 0 min 0 min 0,0 UV-I 90 W/m 5,1 km/h (1 Bft)
04.06.2013 08:22 9,4 C 9,6 C 86 % 1024,3 hPa 0,0 l/m 0 min 0 min 0,0 UV-I 98 W/m 0,0 km/h (0 Bft)
04.06.2013 08:24 9,5 C 9,6 C 86 % 1024,3 hPa 0,0 l/m 0 min 0 min 0,0 UV-I 116 W/m 0,0 km/h (0 Bft)
04.06.2013 08:26 9,5 C 9,6 C 86 % 1024,3 hPa 0,0 l/m 0 min 0 min 0,0 UV-I 135 W/m 0,0 km/h (0 Bft)
04.06.2013 08:28 9,6 C 9,6 C 85 % 1024,4 hPa 0,0 l/m 0 min 0 min 0,0 UV-I 134 W/m 7,7 km/h (2 Bft)
04.06.2013 08:30 9,6 C 9,6 C 85 % 1024,3 hPa 0,0 l/m 0 min 0 min 0,0 UV-I 132 W/m 7,7 km/h (2 Bft)
04.06.2013 08:32 9,7 C 9,6 C 85 % 1024,3 hPa 0,0 l/m 0 min 0 min 0,0 UV-I 134 W/m 12,9 km/h (3 Bft)
04.06.2013 08:34 9,7 C 9,6 C 84 % 1024,3 hPa 0,0 l/m 0 min 0 min 0,0 UV-I 149 W/m 7,7 km/h (2 Bft)
04.06.2013 08:36 9,7 C 10,1 C 84 % 1024,3 hPa 0,0 l/m 0 min 0 min 0,0 UV-I 156 W/m 7,7 km/h (2 Bft)
04.06.2013 08:38 9,7 C 10,1 C 84 % 1024,3 hPa 0,0 l/m 0 min 0 min 0,0 UV-I 183 W/m 5,1 km/h (1 Bft)
04.06.2013 08:40 9,8 C 10,1 C 84 % 1024,3 hPa 0,0 l/m 0 min 0 min 0,0 UV-I 188 W/m 0,0 km/h (0 Bft)
04.06.2013 08:42 9,8 C 10,1 C 84 % 1024,3 hPa 0,0 l/m 0 min 0 min 0,0 UV-I 188 W/m 12,9 km/h (3 Bft)
04.06.2013 08:44 9,9 C 10,1 C 84 % 1024,4 hPa 0,0 l/m 0 min 0 min 0,0 UV-I 199 W/m 10,3 km/h (2 Bft)
04.06.2013 08:46 10,0 C 10,7 C 84 % 1024,3 hPa 0,0 l/m 0 min 0 min 0,0 UV-I 209 W/m 0,0 km/h (0 Bft)
04.06.2013 08:48 10,1 C 10,7 C 83 % 1024,3 hPa 0,0 l/m 0 min 0 min 0,0 UV-I 218 W/m 0,0 km/h (0 Bft)
04.06.2013 08:50 10,2 C 10,7 C 84 % 1024,3 hPa 0,0 l/m 0 min 0 min 0,0 UV-I 213 W/m 0,0 km/h (0 Bft)
04.06.2013 08:52 10,2 C 10,7 C 83 % 1024,3 hPa 0,0 l/m 0 min 0 min 0,0 UV-I 220 W/m 10,3 km/h (2 Bft)
04.06.2013 08:54 10,2 C 10,7 C 82 % 1024,3 hPa 0,0 l/m 0 min 0 min 0,0 UV-I 239 W/m 7,7 km/h (2 Bft)
04.06.2013 08:56 10,3 C 10,7 C 82 % 1024,2 hPa 0,0 l/m 0 min 0 min 0,0 UV-I 232 W/m 2,6 km/h (1 Bft)
04.06.2013 08:58 10,3 C 10,7 C 82 % 1024,3 hPa 0,0 l/m 0 min 0 min 0,0 UV-I 209 W/m 7,7 km/h (2 Bft)
04.06.2013 09:00 10,3 C 10,7 C 82 % 1024,3 hPa 0,0 l/m 0 min 0 min 0,0 UV-I 188 W/m 12,9 km/h (3 Bft)
04.06.2013 09:02 10,3 C 10,7 C 82 % 1024,3 hPa 0,0 l/m 0 min 0 min 0,0 UV-I 179 W/m 7,7 km/h (2 Bft)
04.06.2013 09:04 10,4 C 11,2 C 82 % 1024,3 hPa 0,0 l/m 0 min 0 min 0,0 UV-I 178 W/m 7,7 km/h (2 Bft)
04.06.2013 09:06 10,4 C 11,2 C 82 % 1024,3 hPa 0,0 l/m 0 min 0 min 0,0 UV-I 172 W/m 5,1 km/h (1 Bft)
04.06.2013 09:08 10,4 C 10,7 C 82 % 1024,3 hPa 0,0 l/m 0 min 0 min 0,0 UV-I 174 W/m 15,4 km/h (3 Bft)
04.06.2013 09:10 10,3 C 10,7 C 82 % 1024,3 hPa 0,0 l/m 0 min 0 min 0,0 UV-I 185 W/m 15,4 km/h (3 Bft)
04.06.2013 09:12 10,3 C 10,7 C 82 % 1024,3 hPa 0,0 l/m 0 min 0 min 0,0 UV-I 183 W/m 7,7 km/h (2 Bft)
04.06.2013 09:14 10,3 C 10,7 C 83 % 1024,2 hPa 0,0 l/m 0 min 0 min 0,0 UV-I 171 W/m 7,7 km/h (2 Bft)
04.06.2013 09:16 10,3 C 10,7 C 83 % 1024,3 hPa 0,0 l/m 0 min 0 min 0,0 UV-I 172 W/m 10,3 km/h (2 Bft)
04.06.2013 09:18 10,3 C 10,7 C 83 % 1024,4 hPa 0,0 l/m 0 min 0 min 0,0 UV-I 195 W/m 10,3 km/h (2 Bft)
04.06.2013 09:20 10,4 C 11,2 C 83 % 1024,3 hPa 0,0 l/m 0 min 0 min 0,0 UV-I 213 W/m 0,0 km/h (0 Bft)
04.06.2013 09:22 10,4 C 11,2 C 82 % 1024,3 hPa 0,0 l/m 0 min 0 min 0,0 UV-I 236 W/m 10,3 km/h (2 Bft)
04.06.2013 09:24 10,4 C 11,2 C 82 % 1024,3 hPa 0,0 l/m 0 min 0 min 0,5 UV-I 265 W/m 7,7 km/h (2 Bft)
04.06.2013 09:26 10,6 C 11,2 C 83 % 1024,4 hPa 0,0 l/m 0 min 0 min 0,0 UV-I 236 W/m 0,0 km/h (0 Bft)
04.06.2013 09:28 10,6 C 11,8 C 83 % 1024,3 hPa 0,0 l/m 0 min 0 min 0,0 UV-I 246 W/m 0,0 km/h (0 Bft)
04.06.2013 09:30 10,8 C 11,8 C 83 % 1024,3 hPa 0,0 l/m 0 min 0 min 0,0 UV-I 243 W/m 0,0 km/h (0 Bft)
04.06.2013 09:32 10,9 C 11,8 C 83 % 1024,3 hPa 0,0 l/m 0 min 0 min 0,0 UV-I 220 W/m 7,7 km/h (2 Bft)
04.06.2013 09:34 10,9 C 11,8 C 82 % 1024,3 hPa 0,0 l/m 0 min 0 min 0,0 UV-I 239 W/m 15,4 km/h (3 Bft)
04.06.2013 09:36 10,8 C 11,8 C 82 % 1024,3 hPa 0,0 l/m 0 min 0 min 0,0 UV-I 237 W/m 12,9 km/h (3 Bft)
04.06.2013 09:38 10,7 C 11,2 C 82 % 1024,3 hPa 0,0 l/m 0 min 0 min 0,0 UV-I 253 W/m 7,7 km/h (2 Bft)
04.06.2013 09:40 10,7 C 11,8 C 83 % 1024,3 hPa 0,0 l/m 0 min 0 min 0,0 UV-I 236 W/m 7,7 km/h (2 Bft)
04.06.2013 09:42 10,8 C 11,8 C 83 % 1024,3 hPa 0,0 l/m 0 min 0 min 0,5 UV-I 243 W/m 15,4 km/h (3 Bft)
04.06.2013 09:44 10,8 C 11,8 C 83 % 1024,3 hPa 0,0 l/m 0 min 0 min 0,5 UV-I 246 W/m 12,9 km/h (3 Bft)
04.06.2013 09:46 10,9 C 11,8 C 84 % 1024,3 hPa 0,0 l/m 0 min 0 min 0,6 UV-I 246 W/m 5,1 km/h (1 Bft)
04.06.2013 09:48 10,9 C 11,8 C 83 % 1024,3 hPa 0,0 l/m 0 min 0 min 0,6 UV-I 258 W/m 7,7 km/h (2 Bft)
04.06.2013 09:50 10,9 C 11,8 C 83 % 1024,3 hPa 0,0 l/m 0 min 0 min 0,7 UV-I 267 W/m 12,9 km/h (3 Bft)
04.06.2013 09:52 10,9 C 11,8 C 83 % 1024,4 hPa 0,0 l/m 0 min 0 min 0,8 UV-I 306 W/m 7,7 km/h (2 Bft)
04.06.2013 09:54 11,0 C 12,3 C 83 % 1024,3 hPa 0,0 l/m 0 min 0 min 0,7 UV-I 294 W/m 10,3 km/h (2 Bft)
04.06.2013 09:56 11,1 C 12,3 C 83 % 1024,3 hPa 0,0 l/m 0 min 0 min 0,6 UV-I 244 W/m 7,7 km/h (2 Bft)
04.06.2013 09:58 11,1 C 11,8 C 82 % 1024,3 hPa 0,0 l/m 0 min 0 min 0,6 UV-I 239 W/m 10,3 km/h (2 Bft)
04.06.2013 10:00 11,1 C 11,8 C 82 % 1024,3 hPa 0,0 l/m 0 min 0 min 0,7 UV-I 267 W/m 12,9 km/h (3 Bft)
04.06.2013 10:02 10,9 C 11,8 C 81 % 1024,3 hPa 0,0 l/m 0 min 0 min 1,0 UV-I 350 W/m 12,9 km/h (3 Bft)
04.06.2013 10:04 10,9 C 12,3 C 82 % 1024,3 hPa 0,0 l/m 0 min 0 min 1,0 UV-I 334 W/m 10,3 km/h (2 Bft)
04.06.2013 10:06 11,1 C 12,3 C 83 % 1024,2 hPa 0,0 l/m 0 min 0 min 1,0 UV-I 350 W/m 0,0 km/h (0 Bft)
04.06.2013 10:08 11,2 C 12,3 C 82 % 1024,3 hPa 0,0 l/m 0 min 0 min 0,9 UV-I 327 W/m 10,3 km/h (2 Bft)
04.06.2013 10:10 11,1 C 12,3 C 82 % 1024,3 hPa 0,0 l/m 0 min 0 min 0,9 UV-I 308 W/m 10,3 km/h (2 Bft)
04.06.2013 10:12 11,2 C 12,3 C 82 % 1024,3 hPa 0,0 l/m 0 min 0 min 0,9 UV-I 294 W/m 15,4 km/h (3 Bft)
04.06.2013 10:14 11,3 C 12,9 C 82 % 1024,3 hPa 0,0 l/m 0 min 0 min 1,1 UV-I 355 W/m 12,9 km/h (3 Bft)
04.06.2013 10:16 11,5 C 12,9 C 83 % 1024,3 hPa 0,0 l/m 0 min 0 min 1,1 UV-I 350 W/m 10,3 km/h (2 Bft)
04.06.2013 10:18 11,6 C 12,9 C 81 % 1024,3 hPa 0,0 l/m 0 min 0 min 1,2 UV-I 357 W/m 10,3 km/h (2 Bft)
04.06.2013 10:20 11,6 C 12,9 C 81 % 1024,3 hPa 0,0 l/m 2 min 0 min 1,4 UV-I 415 W/m 7,7 km/h (2 Bft)
04.06.2013 10:22 11,6 C 13,4 C 81 % 1024,2 hPa 0,0 l/m 2 min 0 min 1,9 UV-I 446 W/m 10,3 km/h (2 Bft)
04.06.2013 10:24 11,7 C 14,6 C 81 % 1024,3 hPa 0,0 l/m 2 min 0 min 1,9 UV-I 682 W/m 10,3 km/h (2 Bft)
04.06.2013 10:26 11,8 C 14,6 C 81 % 1024,3 hPa 0,0 l/m 2 min 0 min 1,9 UV-I 438 W/m 18,0 km/h (3 Bft)
04.06.2013 10:28 11,7 C 14,6 C 80 % 1024,3 hPa 0,0 l/m 0 min 0 min 1,2 UV-I 371 W/m 15,4 km/h (3 Bft)
04.06.2013 10:30 11,8 C 14,0 C 80 % 1024,3 hPa 0,0 l/m 0 min 0 min 1,2 UV-I 341 W/m 10,3 km/h (2 Bft)
04.06.2013 10:32 11,7 C 13,4 C 80 % 1024,2 hPa 0,0 l/m 0 min 0 min 1,2 UV-I 297 W/m 12,9 km/h (3 Bft)
04.06.2013 10:34 11,7 C 12,9 C 81 % 1024,2 hPa 0,0 l/m 0 min 0 min 1,3 UV-I 308 W/m 10,3 km/h (2 Bft)
04.06.2013 10:36 11,7 C 12,9 C 81 % 1024,2 hPa 0,0 l/m 0 min 0 min 1,2 UV-I 315 W/m 12,9 km/h (3 Bft)
04.06.2013 10:38 11,7 C 12,9 C 81 % 1024,2 hPa 0,0 l/m 0 min 0 min 1,2 UV-I 323 W/m 7,7 km/h (2 Bft)
04.06.2013 10:40 11,8 C 13,4 C 82 % 1024,2 hPa 0,0 l/m 0 min 0 min 1,2 UV-I 318 W/m 10,3 km/h (2 Bft)
04.06.2013 10:42 11,9 C 13,4 C 81 % 1024,2 hPa 0,0 l/m 0 min 0 min 1,3 UV-I 341 W/m 15,4 km/h (3 Bft)
04.06.2013 10:44 11,9 C 13,4 C 81 % 1024,2 hPa 0,0 l/m 2 min 0 min 1,6 UV-I 404 W/m 7,7 km/h (2 Bft)
04.06.2013 10:46 12,0 C 13,4 C 82 % 1024,1 hPa 0,0 l/m 0 min 0 min 1,5 UV-I 371 W/m 10,3 km/h (2 Bft)
04.06.2013 10:48 12,1 C 13,4 C 81 % 1024,1 hPa 0,0 l/m 0 min 0 min 1,6 UV-I 357 W/m 10,3 km/h (2 Bft)
04.06.2013 10:50 12,0 C 14,0 C 80 % 1024,0 hPa 0,0 l/m 2 min 0 min 2,1 UV-I 476 W/m 0,0 km/h (0 Bft)
04.06.2013 10:52 12,1 C 14,6 C 81 % 1024,0 hPa 0,0 l/m 2 min 0 min 1,8 UV-I 424 W/m 0,0 km/h (0 Bft)
04.06.2013 10:54 12,3 C 14,6 C 81 % 1024,0 hPa 0,0 l/m 0 min 0 min 1,8 UV-I 364 W/m 0,0 km/h (0 Bft)
04.06.2013 10:56 12,3 C 14,0 C 80 % 1024,1 hPa 0,0 l/m 0 min 0 min 2,7 UV-I 392 W/m 18,0 km/h (3 Bft)
04.06.2013 10:58 12,2 C 14,0 C 79 % 1024,0 hPa 0,0 l/m 0 min 0 min 2,4 UV-I 392 W/m 10,3 km/h (2 Bft)
04.06.2013 11:00 12,3 C 15,7 C 80 % 1023,9 hPa 0,0 l/m 2 min 0 min 2,6 UV-I 679 W/m 7,7 km/h (2 Bft)
04.06.2013 11:02 12,4 C 15,1 C 80 % 1023,9 hPa 0,0 l/m 0 min 0 min 1,9 UV-I 394 W/m 15,4 km/h (3 Bft)
04.06.2013 11:04 12,3 C 14,6 C 80 % 1023,9 hPa 0,0 l/m 2 min 0 min 2,1 UV-I 439 W/m 10,3 km/h (2 Bft)
04.06.2013 11:06 12,4 C 15,1 C 80 % 1023,9 hPa 0,0 l/m 2 min 0 min 2,3 UV-I 504 W/m 12,9 km/h (3 Bft)
04.06.2013 11:08 12,6 C 16,2 C 80 % 1023,8 hPa 0,0 l/m 2 min 0 min 2,2 UV-I 756 W/m 18,0 km/h (3 Bft)
04.06.2013 11:10 12,6 C 15,7 C 79 % 1023,9 hPa 0,0 l/m 2 min 0 min 2,8 UV-I 559 W/m 12,9 km/h (3 Bft)
04.06.2013 11:12 12,7 C 16,8 C 80 % 1023,9 hPa 0,0 l/m 2 min 0 min 3,5 UV-I 935 W/m 15,4 km/h (3 Bft)
04.06.2013 11:14 12,9 C 18,4 C 80 % 1023,8 hPa 0,0 l/m 2 min 0 min 3,7 UV-I 946 W/m 18,0 km/h (3 Bft)
04.06.2013 11:16 13,3 C 18,4 C 79 % 1023,8 hPa 0,0 l/m 2 min 0 min 3,7 UV-I 949 W/m 20,6 km/h (4 Bft)
04.06.2013 11:18 13,3 C 19,0 C 78 % 1023,8 hPa 0,0 l/m 2 min 0 min 3,7 UV-I 803 W/m 12,9 km/h (3 Bft)
04.06.2013 11:20 13,3 C 18,4 C 77 % 1023,8 hPa 0,0 l/m 2 min 0 min 3,3 UV-I 719 W/m 23,2 km/h (4 Bft)
04.06.2013 11:22 13,2 C 16,8 C 77 % 1023,9 hPa 0,0 l/m 0 min 0 min 2,1 UV-I 376 W/m 7,7 km/h (2 Bft)
04.06.2013 11:24 13,1 C 15,7 C 77 % 1023,9 hPa 0,0 l/m 2 min 0 min 2,2 UV-I 448 W/m 20,6 km/h (4 Bft)
04.06.2013 11:26 12,9 C 15,7 C 77 % 1023,8 hPa 0,0 l/m 0 min 0 min 3,5 UV-I 424 W/m 10,3 km/h (2 Bft)
04.06.2013 11:28 13,0 C 17,3 C 78 % 1023,8 hPa 0,0 l/m 2 min 0 min 3,4 UV-I 745 W/m 12,9 km/h (3 Bft)
04.06.2013 11:30 13,0 C 17,9 C 78 % 1023,8 hPa 0,0 l/m 2 min 0 min 3,6 UV-I 738 W/m 10,3 km/h (2 Bft)
04.06.2013 11:32 13,3 C 19,0 C 79 % 1023,8 hPa 0,0 l/m 2 min 0 min 3,2 UV-I 812 W/m 15,4 km/h (3 Bft)
04.06.2013 11:34 13,5 C 19,0 C 79 % 1023,8 hPa 0,0 l/m 2 min 0 min 3,9 UV-I 865 W/m 10,3 km/h (2 Bft)
04.06.2013 11:36 13,6 C 19,6 C 77 % 1023,7 hPa 0,0 l/m 2 min 0 min 4,1 UV-I 898 W/m 10,3 km/h (2 Bft)
04.06.2013 11:38 13,7 C 19,6 C 77 % 1023,8 hPa 0,0 l/m 2 min 0 min 4,0 UV-I 861 W/m 20,6 km/h (4 Bft)
04.06.2013 11:40 13,7 C 19,6 C 77 % 1023,8 hPa 0,0 l/m 2 min 0 min 3,9 UV-I 823 W/m 0,0 km/h (0 Bft)
04.06.2013 11:42 14,2 C 20,7 C 78 % 1023,7 hPa 0,0 l/m 2 min 0 min 4,1 UV-I 858 W/m 10,3 km/h (2 Bft)
04.06.2013 11:44 14,4 C 20,1 C 76 % 1023,7 hPa 0,0 l/m 2 min 0 min 4,2 UV-I 896 W/m 2,6 km/h (1 Bft)
04.06.2013 11:46 14,6 C 19,6 C 75 % 1023,7 hPa 0,0 l/m 2 min 0 min 4,2 UV-I 874 W/m 15,4 km/h (3 Bft)
04.06.2013 11:48 14,4 C 18,4 C 74 % 1023,7 hPa 0,0 l/m 2 min 0 min 4,2 UV-I 844 W/m 15,4 km/h (3 Bft)
04.06.2013 11:50 14,0 C 18,4 C 74 % 1023,7 hPa 0,0 l/m 2 min 0 min 4,2 UV-I 846 W/m 12,9 km/h (3 Bft)
04.06.2013 11:52 14,0 C 19,0 C 76 % 1023,7 hPa 0,0 l/m 2 min 0 min 4,2 UV-I 821 W/m 12,9 km/h (3 Bft)
04.06.2013 11:54 14,0 C 19,6 C 76 % 1023,7 hPa 0,0 l/m 2 min 0 min 4,1 UV-I 793 W/m 15,4 km/h (3 Bft)
04.06.2013 11:56 14,0 C 20,1 C 76 % 1023,7 hPa 0,0 l/m 2 min 0 min 4,1 UV-I 788 W/m 15,4 km/h (3 Bft)
04.06.2013 11:58 14,0 C 20,1 C 75 % 1023,7 hPa 0,0 l/m 2 min 0 min 4,2 UV-I 798 W/m 18,0 km/h (3 Bft)
04.06.2013 12:00 14,2 C 21,8 C 77 % 1023,7 hPa 0,0 l/m 2 min 0 min 4,2 UV-I 814 W/m 7,7 km/h (2 Bft)
04.06.2013 12:02 14,4 C 23,4 C 75 % 1023,6 hPa 0,0 l/m 2 min 0 min 4,1 UV-I 796 W/m 10,3 km/h (2 Bft)
04.06.2013 12:04 14,6 C 22,3 C 75 % 1023,6 hPa 0,0 l/m 2 min 0 min 4,2 UV-I 795 W/m 23,2 km/h (4 Bft)
04.06.2013 12:06 14,5 C 22,3 C 75 % 1023,6 hPa 0,0 l/m 2 min 0 min 4,4 UV-I 831 W/m 12,9 km/h (3 Bft)
04.06.2013 12:08 14,6 C 22,3 C 74 % 1023,6 hPa 0,0 l/m 2 min 0 min 4,3 UV-I 833 W/m 10,3 km/h (2 Bft)
04.06.2013 12:10 14,6 C 21,8 C 74 % 1023,6 hPa 0,0 l/m 2 min 0 min 4,3 UV-I 823 W/m 15,4 km/h (3 Bft)
04.06.2013 12:12 14,6 C 22,3 C 74 % 1023,6 hPa 0,0 l/m 2 min 0 min 4,4 UV-I 856 W/m 10,3 km/h (2 Bft)
04.06.2013 12:14 14,7 C 22,3 C 74 % 1023,5 hPa 0,0 l/m 2 min 0 min 4,3 UV-I 800 W/m 18,0 km/h (3 Bft)
04.06.2013 12:16 14,6 C 22,3 C 74 % 1023,5 hPa 0,0 l/m 2 min 0 min 4,3 UV-I 847 W/m 12,9 km/h (3 Bft)
04.06.2013 12:18 14,8 C 22,3 C 76 % 1023,5 hPa 0,0 l/m 2 min 0 min 4,4 UV-I 833 W/m 2,6 km/h (1 Bft)
04.06.2013 12:20 15,0 C 22,9 C 74 % 1023,5 hPa 0,0 l/m 2 min 0 min 4,4 UV-I 837 W/m 0,0 km/h (0 Bft)
04.06.2013 12:22 15,3 C 24,0 C 75 % 1023,4 hPa 0,0 l/m 2 min 0 min 4,5 UV-I 847 W/m 12,9 km/h (3 Bft)
04.06.2013 12:24 15,4 C 23,4 C 73 % 1023,4 hPa 0,0 l/m 2 min 0 min 4,4 UV-I 814 W/m 18,0 km/h (3 Bft)
04.06.2013 12:26 15,4 C 22,9 C 73 % 1023,4 hPa 0,0 l/m 2 min 0 min 4,5 UV-I 826 W/m 10,3 km/h (2 Bft)
04.06.2013 12:28 15,6 C 23,4 C 75 % 1023,3 hPa 0,0 l/m 2 min 0 min 4,5 UV-I 831 W/m 7,7 km/h (2 Bft)
04.06.2013 12:30 15,7 C 24,0 C 73 % 1023,3 hPa 0,0 l/m 2 min 0 min 4,4 UV-I 821 W/m 7,7 km/h (2 Bft)
04.06.2013 12:32 15,8 C 24,0 C 73 % 1023,3 hPa 0,0 l/m 2 min 0 min 4,5 UV-I 823 W/m 12,9 km/h (3 Bft)
04.06.2013 12:34 15,7 C 22,9 C 71 % 1023,3 hPa 0,0 l/m 2 min 0 min 4,7 UV-I 851 W/m 20,6 km/h (4 Bft)
04.06.2013 12:36 15,5 C 22,9 C 71 % 1023,3 hPa 0,0 l/m 2 min 0 min 4,7 UV-I 853 W/m 15,4 km/h (3 Bft)
04.06.2013 12:38 15,4 C 22,9 C 72 % 1023,3 hPa 0,0 l/m 2 min 0 min 4,7 UV-I 849 W/m 15,4 km/h (3 Bft)
04.06.2013 12:40 15,2 C 22,9 C 72 % 1023,3 hPa 0,0 l/m 2 min 0 min 4,8 UV-I 856 W/m 15,4 km/h (3 Bft)
04.06.2013 12:42 15,2 C 21,8 C 73 % 1023,3 hPa 0,0 l/m 2 min 0 min 4,8 UV-I 856 W/m 20,6 km/h (4 Bft)
04.06.2013 12:44 15,1 C 21,8 C 74 % 1023,3 hPa 0,0 l/m 2 min 0 min 4,0 UV-I 858 W/m 15,4 km/h (3 Bft)
04.06.2013 12:46 15,3 C 22,3 C 74 % 1023,2 hPa 0,0 l/m 2 min 0 min 4,2 UV-I 802 W/m 18,0 km/h (3 Bft)
04.06.2013 12:48 15,6 C 22,3 C 73 % 1023,2 hPa 0,0 l/m 2 min 0 min 4,7 UV-I 881 W/m 10,3 km/h (2 Bft)
04.06.2013 12:50 15,9 C 22,3 C 73 % 1023,2 hPa 0,0 l/m 2 min 0 min 4,5 UV-I 854 W/m 10,3 km/h (2 Bft)
04.06.2013 12:52 15,8 C 21,8 C 71 % 1023,2 hPa 0,0 l/m 2 min 0 min 4,5 UV-I 865 W/m 25,7 km/h (4 Bft)
04.06.2013 12:54 15,9 C 22,9 C 72 % 1023,1 hPa 0,0 l/m 2 min 0 min 3,9 UV-I 861 W/m 7,7 km/h (2 Bft)
04.06.2013 12:56 16,0 C 22,9 C 71 % 1023,1 hPa 0,0 l/m 2 min 0 min 3,6 UV-I 867 W/m 15,4 km/h (3 Bft)
04.06.2013 12:58 16,2 C 24,6 C 74 % 1023,1 hPa 0,0 l/m 2 min 0 min 3,3 UV-I 865 W/m 15,4 km/h (3 Bft)
04.06.2013 13:00 16,4 C 25,1 C 72 % 1023,0 hPa 0,0 l/m 2 min 0 min 2,9 UV-I 877 W/m 12,9 km/h (3 Bft)
04.06.2013 13:02 16,3 C 25,1 C 71 % 1023,0 hPa 0,0 l/m 2 min 0 min 2,7 UV-I 881 W/m 15,4 km/h (3 Bft)
04.06.2013 13:04 16,3 C 24,6 C 72 % 1023,0 hPa 0,0 l/m 2 min 0 min 2,6 UV-I 874 W/m 20,6 km/h (4 Bft)
04.06.2013 13:06 16,3 C 25,1 C 71 % 1022,9 hPa 0,0 l/m 2 min 0 min 2,7 UV-I 860 W/m 15,4 km/h (3 Bft)
04.06.2013 13:08 16,6 C 25,1 C 71 % 1022,9 hPa 0,0 l/m 2 min 0 min 2,7 UV-I 749 W/m 18,0 km/h (3 Bft)
04.06.2013 13:10 16,4 C 23,4 C 70 % 1022,9 hPa 0,0 l/m 2 min 0 min 2,6 UV-I 814 W/m 12,9 km/h (3 Bft)
04.06.2013 13:12 16,4 C 23,4 C 71 % 1022,9 hPa 0,0 l/m 2 min 0 min 2,6 UV-I 882 W/m 12,9 km/h (3 Bft)
04.06.2013 13:14 16,3 C 23,4 C 71 % 1022,9 hPa 0,0 l/m 2 min 0 min 2,6 UV-I 849 W/m 12,9 km/h (3 Bft)
04.06.2013 13:16 16,3 C 23,4 C 71 % 1022,9 hPa 0,0 l/m 2 min 0 min 2,6 UV-I 865 W/m 10,3 km/h (2 Bft)
04.06.2013 13:18 16,3 C 23,4 C 72 % 1022,8 hPa 0,0 l/m 2 min 0 min 2,6 UV-I 900 W/m 12,9 km/h (3 Bft)
04.06.2013 13:20 16,4 C 23,4 C 71 % 1022,8 hPa 0,0 l/m 2 min 0 min 2,6 UV-I 863 W/m 18,0 km/h (3 Bft)
04.06.2013 13:22 16,6 C 22,9 C 71 % 1022,8 hPa 0,0 l/m 2 min 0 min 2,6 UV-I 868 W/m 28,3 km/h (4 Bft)
04.06.2013 13:24 16,5 C 22,3 C 70 % 1022,8 hPa 0,0 l/m 2 min 0 min 2,6 UV-I 865 W/m 12,9 km/h (3 Bft)
04.06.2013 13:26 16,4 C 22,3 C 70 % 1022,8 hPa 0,0 l/m 2 min 0 min 2,6 UV-I 865 W/m 20,6 km/h (4 Bft)
04.06.2013 13:28 16,4 C 22,9 C 71 % 1022,8 hPa 0,0 l/m 2 min 0 min 2,6 UV-I 884 W/m 20,6 km/h (4 Bft)
04.06.2013 13:30 16,4 C 22,3 C 69 % 1022,7 hPa 0,0 l/m 2 min 0 min 2,6 UV-I 884 W/m 18,0 km/h (3 Bft)
04.06.2013 13:32 16,7 C 23,4 C 73 % 1022,6 hPa 0,0 l/m 2 min 0 min 2,6 UV-I 911 W/m 18,0 km/h (3 Bft)
04.06.2013 13:34 16,9 C 24,0 C 70 % 1022,6 hPa 0,0 l/m 2 min 0 min 2,7 UV-I 937 W/m 12,9 km/h (3 Bft)
04.06.2013 13:36 16,9 C 24,0 C 69 % 1022,6 hPa 0,0 l/m 2 min 0 min 2,9 UV-I 977 W/m 7,7 km/h (2 Bft)
04.06.2013 13:38 16,9 C 24,0 C 70 % 1022,6 hPa 0,0 l/m 2 min 0 min 2,8 UV-I 953 W/m 7,7 km/h (2 Bft)
04.06.2013 13:40 17,0 C 21,8 C 70 % 1022,6 hPa 0,0 l/m 2 min 0 min 3,1 UV-I 925 W/m 20,6 km/h (4 Bft)
04.06.2013 13:45 17,7 C 20,7 C 69 % 1022,6 hPa 0,0 l/m 2 min 0 min 3,8 UV-I 949 W/m 15,4 km/h (3 Bft)
04.06.2013 13:50 17,0 C 19,0 C 69 % 1022,5 hPa 0,0 l/m 2 min 0 min 4,6 UV-I 962 W/m 25,7 km/h (4 Bft)
04.06.2013 13:55 17,3 C 19,0 C 68 % 1022,5 hPa 0,0 l/m 2 min 0 min 4,8 UV-I 1007 W/m 23,2 km/h (4 Bft)
04.06.2013 14:00 17,4 C 19,6 C 69 % 1022,4 hPa 0,0 l/m 2 min 0 min 4,8 UV-I 940 W/m 12,9 km/h (3 Bft)
04.06.2013 14:02 17,3 C 19,0 C 69 % 1022,4 hPa 0,0 l/m 2 min 0 min 4,7 UV-I 965 W/m 23,2 km/h (4 Bft)
04.06.2013 14:04 17,2 C 18,4 C 68 % 1022,3 hPa 0,0 l/m 0 min 0 min 2,5 UV-I 283 W/m 15,4 km/h (3 Bft)
04.06.2013 14:06 17,1 C 19,0 C 69 % 1022,2 hPa 0,0 l/m 2 min 0 min 4,8 UV-I 919 W/m 7,7 km/h (2 Bft)
04.06.2013 14:08 17,4 C 19,6 C 71 % 1022,2 hPa 0,0 l/m 2 min 0 min 3,3 UV-I 991 W/m 10,3 km/h (2 Bft)
04.06.2013 14:10 17,9 C 20,1 C 68 % 1022,1 hPa 0,0 l/m 2 min 0 min 5,0 UV-I 956 W/m 12,9 km/h (3 Bft)
04.06.2013 14:12 17,9 C 19,6 C 65 % 1022,1 hPa 0,0 l/m 2 min 0 min 4,9 UV-I 974 W/m 15,4 km/h (3 Bft)
04.06.2013 14:14 17,4 C 19,6 C 66 % 1022,1 hPa 0,0 l/m 0 min 0 min 2,8 UV-I 434 W/m 15,4 km/h (3 Bft)
04.06.2013 14:16 17,2 C 19,0 C 68 % 1022,1 hPa 0,0 l/m 2 min 0 min 2,5 UV-I 506 W/m 12,9 km/h (3 Bft)
04.06.2013 14:18 17,1 C 18,4 C 69 % 1022,1 hPa 0,0 l/m 0 min 0 min 3,1 UV-I 295 W/m 30,9 km/h (5 Bft)
04.06.2013 14:20 17,0 C 18,4 C 69 % 1022,1 hPa 0,0 l/m 2 min 0 min 2,6 UV-I 687 W/m 20,6 km/h (4 Bft)
04.06.2013 14:22 16,9 C 18,4 C 69 % 1022,0 hPa 0,0 l/m 2 min 0 min 4,7 UV-I 687 W/m 18,0 km/h (3 Bft)
04.06.2013 14:24 17,1 C 19,0 C 70 % 1022,1 hPa 0,0 l/m 2 min 0 min 4,8 UV-I 904 W/m 15,4 km/h (3 Bft)
04.06.2013 14:26 17,3 C 19,6 C 70 % 1022,0 hPa 0,0 l/m 2 min 0 min 4,9 UV-I 921 W/m 12,9 km/h (3 Bft)
04.06.2013 14:28 17,7 C 20,1 C 69 % 1022,0 hPa 0,0 l/m 2 min 0 min 4,9 UV-I 986 W/m 15,4 km/h (3 Bft)
04.06.2013 14:30 18,0 C 20,7 C 68 % 1022,0 hPa 0,0 l/m 2 min 0 min 4,7 UV-I 1002 W/m 12,9 km/h (3 Bft)
04.06.2013 14:32 18,4 C 21,2 C 69 % 1021,9 hPa 0,0 l/m 2 min 0 min 4,5 UV-I 919 W/m 7,7 km/h (2 Bft)
04.06.2013 14:34 18,4 C 20,7 C 66 % 1021,9 hPa 0,0 l/m 2 min 0 min 4,4 UV-I 582 W/m 12,9 km/h (3 Bft)
04.06.2013 14:36 18,3 C 21,2 C 70 % 1021,9 hPa 0,0 l/m 2 min 0 min 4,8 UV-I 868 W/m 5,1 km/h (1 Bft)
04.06.2013 14:38 18,8 C 21,8 C 66 % 1021,9 hPa 0,0 l/m 2 min 0 min 4,7 UV-I 867 W/m 5,1 km/h (1 Bft)
04.06.2013 14:40 18,7 C 21,2 C 63 % 1021,9 hPa 0,0 l/m 2 min 0 min 4,7 UV-I 872 W/m 15,4 km/h (3 Bft)
04.06.2013 14:42 18,6 C 21,2 C 64 % 1021,8 hPa 0,0 l/m 2 min 0 min 4,8 UV-I 884 W/m 15,4 km/h (3 Bft)
04.06.2013 14:44 18,3 C 21,2 C 63 % 1021,9 hPa 0,0 l/m 2 min 0 min 2,6 UV-I 925 W/m 20,6 km/h (4 Bft)
04.06.2013 14:46 18,3 C 20,7 C 64 % 1021,9 hPa 0,0 l/m 0 min 0 min 4,7 UV-I 265 W/m 10,3 km/h (2 Bft)
04.06.2013 14:48 18,3 C 20,7 C 63 % 1021,9 hPa 0,0 l/m 2 min 0 min 4,6 UV-I 860 W/m 20,6 km/h (4 Bft)
04.06.2013 14:50 18,2 C 21,2 C 63 % 1021,9 hPa 0,0 l/m 2 min 0 min 4,5 UV-I 872 W/m 15,4 km/h (3 Bft)
04.06.2013 14:52 18,1 C 21,8 C 66 % 1021,8 hPa 0,0 l/m 2 min 0 min 4,7 UV-I 926 W/m 10,3 km/h (2 Bft)
04.06.2013 14:54 18,2 C 21,8 C 64 % 1021,7 hPa 0,0 l/m 2 min 0 min 4,7 UV-I 954 W/m 2,6 km/h (1 Bft)
04.06.2013 14:56 18,5 C 21,2 C 65 % 1021,7 hPa 0,0 l/m 2 min 0 min 4,6 UV-I 925 W/m 15,4 km/h (3 Bft)
04.06.2013 14:58 18,6 C 20,7 C 63 % 1021,8 hPa 0,0 l/m 2 min 0 min 4,3 UV-I 867 W/m 20,6 km/h (4 Bft)
04.06.2013 15:00 18,7 C 21,2 C 64 % 1021,7 hPa 0,0 l/m 2 min 0 min 3,6 UV-I 916 W/m 10,3 km/h (2 Bft)
04.06.2013 15:02 18,7 C 20,7 C 65 % 1021,7 hPa 0,0 l/m 2 min 0 min 4,5 UV-I 916 W/m 12,9 km/h (3 Bft)
04.06.2013 15:04 18,9 C 21,2 C 64 % 1021,7 hPa 0,0 l/m 2 min 0 min 3,6 UV-I 925 W/m 15,4 km/h (3 Bft)
04.06.2013 15:06 19,0 C 21,2 C 64 % 1021,7 hPa 0,0 l/m 2 min 0 min 3,7 UV-I 925 W/m 18,0 km/h (3 Bft)
04.06.2013 15:08 18,8 C 20,1 C 64 % 1021,7 hPa 0,0 l/m 2 min 0 min 3,1 UV-I 494 W/m 15,4 km/h (3 Bft)
04.06.2013 15:10 18,6 C 20,1 C 65 % 1021,8 hPa 0,0 l/m 2 min 0 min 4,2 UV-I 494 W/m 15,4 km/h (3 Bft)
04.06.2013 15:12 18,7 C 20,7 C 66 % 1021,7 hPa 0,0 l/m 2 min 0 min 4,2 UV-I 494 W/m 15,4 km/h (3 Bft)
04.06.2013 15:14 18,7 C 20,1 C 64 % 1021,6 hPa 0,0 l/m 2 min 0 min 2,8 UV-I 494 W/m 10,3 km/h (2 Bft)
04.06.2013 15:16 18,6 C 20,1 C 64 % 1021,7 hPa 0,0 l/m 0 min 0 min 2,4 UV-I 381 W/m 15,4 km/h (3 Bft)
04.06.2013 15:18 18,4 C 20,1 C 65 % 1021,6 hPa 0,0 l/m 0 min 0 min 2,2 UV-I 343 W/m 15,4 km/h (3 Bft)
04.06.2013 15:20 18,4 C 20,1 C 66 % 1021,6 hPa 0,0 l/m 0 min 0 min 2,6 UV-I 343 W/m 10,3 km/h (2 Bft)
04.06.2013 15:22 18,6 C 20,1 C 65 % 1021,5 hPa 0,0 l/m 0 min 0 min 4,0 UV-I 343 W/m 12,9 km/h (3 Bft)
04.06.2013 15:24 18,8 C 20,1 C 65 % 1021,5 hPa 0,0 l/m 2 min 0 min 3,8 UV-I 831 W/m 10,3 km/h (2 Bft)
04.06.2013 15:26 18,8 C 20,1 C 65 % 1021,5 hPa 0,0 l/m 2 min 0 min 4,1 UV-I 858 W/m 12,9 km/h (3 Bft)
04.06.2013 15:28 18,8 C 19,6 C 65 % 1021,5 hPa 0,0 l/m 2 min 0 min 3,8 UV-I 809 W/m 18,0 km/h (3 Bft)
04.06.2013 15:30 18,9 C 20,1 C 64 % 1021,5 hPa 0,0 l/m 2 min 0 min 3,8 UV-I 872 W/m 12,9 km/h (3 Bft)
04.06.2013 15:32 18,8 C 20,1 C 64 % 1021,5 hPa 0,0 l/m 2 min 0 min 3,8 UV-I 872 W/m 12,9 km/h (3 Bft)
04.06.2013 15:34 18,9 C 20,1 C 66 % 1021,3 hPa 0,0 l/m 2 min 0 min 3,5 UV-I 737 W/m 12,9 km/h (3 Bft)
04.06.2013 15:36 19,1 C 19,6 C 65 % 1021,4 hPa 0,0 l/m 2 min 0 min 3,3 UV-I 737 W/m 28,3 km/h (4 Bft)
04.06.2013 15:38 18,9 C 19,6 C 63 % 1021,5 hPa 0,0 l/m 2 min 0 min 3,7 UV-I 789 W/m 23,2 km/h (4 Bft)
04.06.2013 15:40 18,8 C 19,6 C 64 % 1021,5 hPa 0,0 l/m 2 min 0 min 3,8 UV-I 796 W/m 23,2 km/h (4 Bft)
04.06.2013 15:42 18,8 C 19,6 C 66 % 1021,3 hPa 0,0 l/m 2 min 0 min 3,7 UV-I 766 W/m 12,9 km/h (3 Bft)
04.06.2013 15:44 19,2 C 20,1 C 66 % 1021,3 hPa 0,0 l/m 2 min 0 min 3,7 UV-I 779 W/m 20,6 km/h (4 Bft)
04.06.2013 15:46 19,1 C 19,6 C 64 % 1021,2 hPa 0,0 l/m 2 min 0 min 3,7 UV-I 782 W/m 28,3 km/h (4 Bft)
04.06.2013 15:48 19,2 C 20,1 C 64 % 1021,3 hPa 0,0 l/m 2 min 0 min 3,7 UV-I 779 W/m 18,0 km/h (3 Bft)
04.06.2013 15:50 19,1 C 19,6 C 63 % 1021,2 hPa 0,0 l/m 2 min 0 min 3,6 UV-I 765 W/m 18,0 km/h (3 Bft)
04.06.2013 15:52 19,0 C 19,6 C 64 % 1021,2 hPa 0,0 l/m 2 min 0 min 3,3 UV-I 722 W/m 15,4 km/h (3 Bft)
04.06.2013 15:54 19,1 C 20,1 C 64 % 1021,2 hPa 0,0 l/m 2 min 0 min 2,4 UV-I 840 W/m 12,9 km/h (3 Bft)
04.06.2013 15:56 19,3 C 20,1 C 66 % 1021,2 hPa 0,0 l/m 0 min 0 min 1,4 UV-I 156 W/m 2,6 km/h (1 Bft)
04.06.2013 15:58 19,3 C 19,6 C 63 % 1021,2 hPa 0,0 l/m 0 min 0 min 1,6 UV-I 137 W/m 15,4 km/h (3 Bft)
04.06.2013 16:00 19,0 C 19,0 C 63 % 1021,2 hPa 0,0 l/m 0 min 0 min 3,4 UV-I 186 W/m 15,4 km/h (3 Bft)
04.06.2013 16:02 18,8 C 19,0 C 64 % 1021,2 hPa 0,0 l/m 2 min 0 min 3,3 UV-I 744 W/m 15,4 km/h (3 Bft)
04.06.2013 16:04 18,9 C 19,6 C 65 % 1021,2 hPa 0,0 l/m 2 min 0 min 3,4 UV-I 765 W/m 12,9 km/h (3 Bft)
04.06.2013 16:06 19,1 C 20,1 C 63 % 1021,2 hPa 0,0 l/m 2 min 0 min 3,3 UV-I 777 W/m 7,7 km/h (2 Bft)
04.06.2013 16:08 19,2 C 20,1 C 64 % 1021,2 hPa 0,0 l/m 2 min 0 min 2,2 UV-I 777 W/m 10,3 km/h (2 Bft)
04.06.2013 16:10 19,4 C 20,1 C 64 % 1021,2 hPa 0,0 l/m 2 min 0 min 3,2 UV-I 761 W/m 15,4 km/h (3 Bft)
04.06.2013 16:12 19,6 C 20,1 C 63 % 1021,2 hPa 0,0 l/m 2 min 0 min 3,2 UV-I 758 W/m 20,6 km/h (4 Bft)
04.06.2013 16:14 19,8 C 20,1 C 64 % 1021,1 hPa 0,0 l/m 2 min 0 min 3,2 UV-I 726 W/m 18,0 km/h (3 Bft)
04.06.2013 16:16 20,2 C 20,1 C 61 % 1021,1 hPa 0,0 l/m 2 min 0 min 3,1 UV-I 708 W/m 12,9 km/h (3 Bft)
04.06.2013 16:18 20,1 C 20,1 C 61 % 1021,0 hPa 0,0 l/m 2 min 0 min 3,1 UV-I 717 W/m 7,7 km/h (2 Bft)
04.06.2013 16:20 19,9 C 20,1 C 61 % 1021,1 hPa 0,0 l/m 2 min 0 min 3,1 UV-I 710 W/m 18,0 km/h (3 Bft)
04.06.2013 16:22 19,7 C 20,1 C 62 % 1021,1 hPa 0,0 l/m 2 min 0 min 2,9 UV-I 603 W/m 12,9 km/h (3 Bft)
04.06.2013 16:24 19,7 C 20,1 C 62 % 1021,0 hPa 0,0 l/m 2 min 0 min 3,0 UV-I 752 W/m 15,4 km/h (3 Bft)
04.06.2013 16:26 19,8 C 20,1 C 62 % 1021,0 hPa 0,0 l/m 2 min 0 min 2,0 UV-I 756 W/m 20,6 km/h (4 Bft)
04.06.2013 16:28 19,7 C 20,1 C 60 % 1021,0 hPa 0,0 l/m 2 min 0 min 2,8 UV-I 719 W/m 18,0 km/h (3 Bft)
04.06.2013 16:30 19,6 C 20,1 C 61 % 1020,8 hPa 0,0 l/m 2 min 0 min 2,6 UV-I 700 W/m 15,4 km/h (3 Bft)
04.06.2013 16:32 19,6 C 19,6 C 61 % 1020,9 hPa 0,0 l/m 0 min 0 min 1,5 UV-I 165 W/m 18,0 km/h (3 Bft)
04.06.2013 16:34 19,5 C 20,1 C 62 % 1020,9 hPa 0,0 l/m 2 min 0 min 2,7 UV-I 714 W/m 23,2 km/h (4 Bft)
04.06.2013 16:36 19,6 C 20,1 C 62 % 1020,9 hPa 0,0 l/m 2 min 0 min 2,7 UV-I 714 W/m 12,9 km/h (3 Bft)
04.06.2013 16:38 19,8 C 20,1 C 62 % 1020,8 hPa 0,0 l/m 2 min 0 min 2,7 UV-I 777 W/m 23,2 km/h (4 Bft)
04.06.2013 16:40 19,9 C 20,7 C 62 % 1020,8 hPa 0,0 l/m 2 min 0 min 1,7 UV-I 684 W/m 23,2 km/h (4 Bft)
04.06.2013 16:42 19,9 C 20,7 C 62 % 1020,7 hPa 0,0 l/m 2 min 0 min 2,6 UV-I 735 W/m 23,2 km/h (4 Bft)
04.06.2013 16:44 20,2 C 20,7 C 61 % 1020,8 hPa 0,0 l/m 2 min 0 min 2,5 UV-I 708 W/m 23,2 km/h (4 Bft)
04.06.2013 16:46 20,2 C 20,7 C 61 % 1020,8 hPa 0,0 l/m 2 min 0 min 2,4 UV-I 691 W/m 20,6 km/h (4 Bft)
04.06.2013 16:48 20,3 C 20,7 C 61 % 1020,7 hPa 0,0 l/m 0 min 0 min 1,6 UV-I 237 W/m 15,4 km/h (3 Bft)
04.06.2013 16:50 20,2 C 20,7 C 61 % 1020,7 hPa 0,0 l/m 0 min 0 min 2,2 UV-I 237 W/m 20,6 km/h (4 Bft)
04.06.2013 16:52 20,2 C 20,1 C 62 % 1020,7 hPa 0,0 l/m 2 min 0 min 1,5 UV-I 374 W/m 20,6 km/h (4 Bft)
04.06.2013 16:54 20,2 C 20,1 C 62 % 1020,7 hPa 0,0 l/m 0 min 0 min 1,8 UV-I 236 W/m 10,3 km/h (2 Bft)
04.06.2013 16:56 20,2 C 20,7 C 61 % 1020,7 hPa 0,0 l/m 2 min 0 min 2,3 UV-I 726 W/m 2,6 km/h (1 Bft)
04.06.2013 16:58 20,3 C 21,2 C 61 % 1020,6 hPa 0,0 l/m 2 min 0 min 2,3 UV-I 717 W/m 7,7 km/h (2 Bft)
04.06.2013 17:00 20,4 C 21,2 C 61 % 1020,6 hPa 0,0 l/m 2 min 0 min 2,3 UV-I 717 W/m 10,3 km/h (2 Bft)
04.06.2013 17:02 20,4 C 21,2 C 61 % 1020,6 hPa 0,0 l/m 0 min 0 min 1,4 UV-I 329 W/m 20,6 km/h (4 Bft)
04.06.2013 17:04 20,4 C 20,7 C 60 % 1020,6 hPa 0,0 l/m 0 min 0 min 1,1 UV-I 330 W/m 15,4 km/h (3 Bft)
04.06.2013 17:06 20,2 C 20,7 C 59 % 1020,5 hPa 0,0 l/m 0 min 0 min 1,1 UV-I 225 W/m 10,3 km/h (2 Bft)
04.06.2013 17:08 20,1 C 20,7 C 61 % 1020,6 hPa 0,0 l/m 0 min 0 min 1,3 UV-I 287 W/m 10,3 km/h (2 Bft)
04.06.2013 17:10 20,0 C 20,7 C 60 % 1020,6 hPa 0,0 l/m 2 min 0 min 2,0 UV-I 700 W/m 15,4 km/h (3 Bft)
04.06.2013 17:12 20,2 C 20,7 C 60 % 1020,5 hPa 0,0 l/m 2 min 0 min 1,9 UV-I 679 W/m 18,0 km/h (3 Bft)
04.06.2013 17:14 20,3 C 20,7 C 60 % 1020,5 hPa 0,0 l/m 2 min 0 min 1,9 UV-I 679 W/m 23,2 km/h (4 Bft)
04.06.2013 17:16 20,2 C 20,1 C 59 % 1020,5 hPa 0,0 l/m 2 min 0 min 1,4 UV-I 645 W/m 15,4 km/h (3 Bft)
04.06.2013 17:18 20,2 C 20,1 C 59 % 1020,5 hPa 0,0 l/m 0 min 0 min 1,3 UV-I 220 W/m 12,9 km/h (3 Bft)
04.06.2013 17:20 20,3 C 20,1 C 60 % 1020,4 hPa 0,0 l/m 0 min 0 min 1,5 UV-I 220 W/m 18,0 km/h (3 Bft)
04.06.2013 17:22 20,3 C 20,1 C 61 % 1020,3 hPa 0,0 l/m 0 min 0 min 1,7 UV-I 246 W/m 10,3 km/h (2 Bft)
04.06.2013 17:24 20,3 C 20,7 C 59 % 1020,4 hPa 0,0 l/m 2 min 0 min 0,9 UV-I 663 W/m 15,4 km/h (3 Bft)
04.06.2013 17:26 20,3 C 20,1 C 59 % 1020,4 hPa 0,0 l/m 0 min 0 min 0,8 UV-I 197 W/m 12,9 km/h (3 Bft)
04.06.2013 17:28 20,2 C 20,1 C 59 % 1020,3 hPa 0,0 l/m 0 min 0 min 0,8 UV-I 174 W/m 20,6 km/h (4 Bft)
04.06.2013 17:30 20,1 C 19,6 C 60 % 1020,2 hPa 0,0 l/m 0 min 0 min 0,8 UV-I 160 W/m 7,7 km/h (2 Bft)
04.06.2013 17:32 20,0 C 19,6 C 61 % 1020,3 hPa 0,0 l/m 0 min 0 min 0,9 UV-I 167 W/m 10,3 km/h (2 Bft)
04.06.2013 17:34 19,9 C 19,6 C 61 % 1020,2 hPa 0,0 l/m 0 min 0 min 0,8 UV-I 183 W/m 25,7 km/h (4 Bft)
04.06.2013 17:36 19,9 C 19,6 C 62 % 1020,2 hPa 0,0 l/m 0 min 0 min 0,9 UV-I 155 W/m 28,3 km/h (4 Bft)
04.06.2013 17:38 20,1 C 19,6 C 61 % 1020,2 hPa 0,0 l/m 0 min 0 min 1,0 UV-I 155 W/m 10,3 km/h (2 Bft)
04.06.2013 17:40 20,3 C 20,1 C 61 % 1020,1 hPa 0,0 l/m 2 min 0 min 1,3 UV-I 571 W/m 12,9 km/h (3 Bft)
04.06.2013 17:42 20,5 C 20,1 C 60 % 1020,1 hPa 0,0 l/m 2 min 0 min 1,1 UV-I 568 W/m 10,3 km/h (2 Bft)
04.06.2013 17:44 20,7 C 20,7 C 59 % 1020,0 hPa 0,0 l/m 2 min 0 min 0,9 UV-I 334 W/m 10,3 km/h (2 Bft)
04.06.2013 17:46 20,7 C 20,1 C 60 % 1020,0 hPa 0,0 l/m 2 min 0 min 1,2 UV-I 334 W/m 12,9 km/h (3 Bft)
04.06.2013 17:48 20,6 C 20,1 C 59 % 1020,1 hPa 0,0 l/m 2 min 0 min 1,0 UV-I 485 W/m 20,6 km/h (4 Bft)
04.06.2013 17:50 20,5 C 19,6 C 59 % 1020,0 hPa 0,0 l/m 0 min 0 min 0,6 UV-I 142 W/m 23,2 km/h (4 Bft)
04.06.2013 17:52 20,4 C 19,6 C 59 % 1020,0 hPa 0,0 l/m 0 min 0 min 0,6 UV-I 153 W/m 15,4 km/h (3 Bft)
04.06.2013 17:54 20,3 C 19,6 C 60 % 1019,9 hPa 0,0 l/m 0 min 0 min 1,1 UV-I 153 W/m 15,4 km/h (3 Bft)
04.06.2013 17:56 20,3 C 19,6 C 59 % 1019,9 hPa 0,0 l/m 2 min 0 min 0,9 UV-I 508 W/m 20,6 km/h (4 Bft)
04.06.2013 17:58 20,4 C 19,6 C 59 % 1019,9 hPa 0,0 l/m 2 min 0 min 1,1 UV-I 485 W/m 12,9 km/h (3 Bft)
04.06.2013 18:00 20,5 C 19,6 C 59 % 1019,9 hPa 0,0 l/m 2 min 0 min 1,1 UV-I 492 W/m 12,9 km/h (3 Bft)
04.06.2013 18:02 20,6 C 19,6 C 59 % 1019,9 hPa 0,0 l/m 2 min 0 min 1,0 UV-I 482 W/m 15,4 km/h (3 Bft)
04.06.2013 18:04 20,6 C 19,6 C 57 % 1019,9 hPa 0,0 l/m 2 min 0 min 0,8 UV-I 464 W/m 15,4 km/h (3 Bft)
04.06.2013 18:06 20,6 C 19,6 C 59 % 1019,8 hPa 0,0 l/m 2 min 0 min 0,7 UV-I 464 W/m 7,7 km/h (2 Bft)
04.06.2013 18:08 20,7 C 20,1 C 58 % 1019,8 hPa 0,0 l/m 2 min 0 min 0,7 UV-I 350 W/m 15,4 km/h (3 Bft)
04.06.2013 18:10 20,8 C 20,1 C 58 % 1019,7 hPa 0,0 l/m 2 min 0 min 0,7 UV-I 279 W/m 18,0 km/h (3 Bft)
04.06.2013 18:12 20,8 C 20,7 C 57 % 1019,7 hPa 0,0 l/m 0 min 0 min 0,6 UV-I 267 W/m 18,0 km/h (3 Bft)
04.06.2013 18:14 20,8 C 20,1 C 56 % 1019,7 hPa 0,0 l/m 2 min 0 min 0,5 UV-I 278 W/m 20,6 km/h (4 Bft)
04.06.2013 18:16 20,8 C 20,1 C 57 % 1019,7 hPa 0,0 l/m 0 min 0 min 0,0 UV-I 178 W/m 15,4 km/h (3 Bft)
04.06.2013 18:18 20,8 C 20,1 C 57 % 1019,7 hPa 0,0 l/m 0 min 0 min 0,0 UV-I 179 W/m 20,6 km/h (4 Bft)
04.06.2013 18:20 20,7 C 20,1 C 56 % 1019,6 hPa 0,0 l/m 0 min 0 min 0,0 UV-I 176 W/m 12,9 km/h (3 Bft)
04.06.2013 18:22 20,7 C 20,1 C 56 % 1019,6 hPa 0,0 l/m 2 min 0 min 0,6 UV-I 459 W/m 28,3 km/h (4 Bft)
04.06.2013 18:24 20,7 C 20,1 C 57 % 1019,6 hPa 0,0 l/m 2 min 0 min 0,6 UV-I 457 W/m 15,4 km/h (3 Bft)
04.06.2013 18:26 20,8 C 20,1 C 56 % 1019,6 hPa 0,0 l/m 2 min 0 min 0,6 UV-I 411 W/m 25,7 km/h (4 Bft)
04.06.2013 18:28 20,8 C 20,1 C 56 % 1019,6 hPa 0,0 l/m 2 min 0 min 0,0 UV-I 397 W/m 20,6 km/h (4 Bft)
04.06.2013 18:30 20,8 C 19,6 C 55 % 1019,6 hPa 0,0 l/m 2 min 0 min 0,5 UV-I 364 W/m 20,6 km/h (4 Bft)
04.06.2013 18:32 20,7 C 19,6 C 55 % 1019,6 hPa 0,0 l/m 0 min 0 min 0,0 UV-I 111 W/m 20,6 km/h (4 Bft)
04.06.2013 18:34 20,7 C 19,6 C 55 % 1019,6 hPa 0,0 l/m 0 min 0 min 0,5 UV-I 121 W/m 10,3 km/h (2 Bft)
04.06.2013 18:36 20,7 C 19,6 C 57 % 1019,5 hPa 0,0 l/m 2 min 0 min 0,5 UV-I 264 W/m 7,7 km/h (2 Bft)
04.06.2013 18:38 20,8 C 19,6 C 57 % 1019,4 hPa 0,0 l/m 2 min 0 min 0,0 UV-I 260 W/m 2,6 km/h (1 Bft)
04.06.2013 18:40 20,8 C 19,6 C 56 % 1019,5 hPa 0,0 l/m 0 min 0 min 0,0 UV-I 207 W/m 7,7 km/h (2 Bft)
04.06.2013 18:42 20,9 C 19,6 C 56 % 1019,5 hPa 0,0 l/m 0 min 0 min 0,0 UV-I 104 W/m 18,0 km/h (3 Bft)
04.06.2013 18:44 20,9 C 20,1 C 55 % 1019,4 hPa 0,0 l/m 0 min 0 min 0,0 UV-I 121 W/m 15,4 km/h (3 Bft)
04.06.2013 18:46 21,0 C 20,1 C 55 % 1019,4 hPa 0,0 l/m 0 min 0 min 0,0 UV-I 127 W/m 10,3 km/h (2 Bft)
04.06.2013 18:48 21,1 C 20,1 C 54 % 1019,4 hPa 0,0 l/m 0 min 0 min 0,0 UV-I 130 W/m 15,4 km/h (3 Bft)
04.06.2013 18:50 21,1 C 20,1 C 54 % 1019,4 hPa 0,0 l/m 0 min 0 min 0,0 UV-I 172 W/m 15,4 km/h (3 Bft)
04.06.2013 18:52 21,2 C 20,7 C 53 % 1019,4 hPa 0,0 l/m 0 min 0 min 0,0 UV-I 188 W/m 15,4 km/h (3 Bft)
04.06.2013 18:54 21,2 C 20,7 C 52 % 1019,4 hPa 0,0 l/m 0 min 0 min 0,0 UV-I 174 W/m 15,4 km/h (3 Bft)
04.06.2013 18:56 21,3 C 20,7 C 53 % 1019,3 hPa 0,0 l/m 0 min 0 min 0,0 UV-I 146 W/m 12,9 km/h (3 Bft)
04.06.2013 18:58 21,2 C 20,7 C 52 % 1019,3 hPa 0,0 l/m 0 min 0 min 0,0 UV-I 139 W/m 15,4 km/h (3 Bft)
04.06.2013 19:00 21,2 C 20,1 C 52 % 1019,4 hPa 0,0 l/m 0 min 0 min 0,0 UV-I 156 W/m 10,3 km/h (2 Bft)
04.06.2013 19:02 21,2 C 20,1 C 53 % 1019,4 hPa 0,0 l/m 0 min 0 min 0,0 UV-I 127 W/m 10,3 km/h (2 Bft)
04.06.2013 19:04 21,2 C 20,1 C 53 % 1019,4 hPa 0,0 l/m 0 min 0 min 0,0 UV-I 86 W/m 7,7 km/h (2 Bft)
04.06.2013 19:06 21,2 C 20,1 C 53 % 1019,4 hPa 0,0 l/m 0 min 0 min 0,0 UV-I 72 W/m 20,6 km/h (4 Bft)
04.06.2013 19:08 21,2 C 20,1 C 53 % 1019,3 hPa 0,0 l/m 0 min 0 min 0,0 UV-I 70 W/m 10,3 km/h (2 Bft)
04.06.2013 19:10 21,2 C 20,1 C 53 % 1019,3 hPa 0,0 l/m 0 min 0 min 0,0 UV-I 67 W/m 12,9 km/h (3 Bft)
04.06.2013 19:12 21,2 C 19,6 C 52 % 1019,2 hPa 0,0 l/m 0 min 0 min 0,0 UV-I 63 W/m 10,3 km/h (2 Bft)
04.06.2013 19:14 21,1 C 19,6 C 52 % 1019,2 hPa 0,0 l/m 0 min 0 min 0,0 UV-I 62 W/m 2,6 km/h (1 Bft)
04.06.2013 19:16 21,1 C 19,6 C 52 % 1019,1 hPa 0,0 l/m 0 min 0 min 0,0 UV-I 58 W/m 0,0 km/h (0 Bft)
04.06.2013 19:18 21,0 C 16,8 C 52 % 1019,3 hPa 0,0 l/m 0 min 0 min 0,0 UV-I 60 W/m 2,6 km/h (1 Bft)
04.06.2013 19:20 20,8 C 15,7 C 55 % 1019,3 hPa 0,0 l/m 0 min 0 min 0,0 UV-I 60 W/m 0,0 km/h (0 Bft)
04.06.2013 19:22 20,8 C 15,7 C 53 % 1019,3 hPa 0,0 l/m 0 min 2 min 0,0 UV-I 60 W/m 7,7 km/h (2 Bft)
04.06.2013 19:24 20,8 C 15,7 C 51 % 1019,3 hPa 0,0 l/m 0 min 2 min 0,0 UV-I 60 W/m 2,6 km/h (1 Bft)
04.06.2013 19:26 20,7 C 16,2 C 51 % 1019,2 hPa 0,0 l/m 0 min 0 min 0,0 UV-I 58 W/m 12,9 km/h (3 Bft)
04.06.2013 19:28 20,8 C 16,8 C 53 % 1019,3 hPa 0,0 l/m 0 min 0 min 0,0 UV-I 56 W/m 12,9 km/h (3 Bft)
04.06.2013 19:30 20,7 C 17,9 C 51 % 1019,2 hPa 0,0 l/m 0 min 0 min 0,0 UV-I 54 W/m 10,3 km/h (2 Bft)
04.06.2013 19:32 20,7 C 17,9 C 51 % 1019,2 hPa 0,0 l/m 0 min 0 min 0,0 UV-I 54 W/m 10,3 km/h (2 Bft)
04.06.2013 19:34 20,7 C 17,9 C 52 % 1019,2 hPa 0,0 l/m 0 min 0 min 0,0 UV-I 56 W/m 7,7 km/h (2 Bft)
04.06.2013 19:36 20,6 C 18,4 C 53 % 1019,2 hPa 0,0 l/m 0 min 0 min 0,0 UV-I 54 W/m 10,3 km/h (2 Bft)
04.06.2013 19:38 20,6 C 18,4 C 52 % 1019,2 hPa 0,0 l/m 0 min 0 min 0,0 UV-I 62 W/m 10,3 km/h (2 Bft)
04.06.2013 19:40 20,6 C 18,4 C 52 % 1019,3 hPa 0,0 l/m 0 min 0 min 0,0 UV-I 70 W/m 10,3 km/h (2 Bft)
04.06.2013 19:42 20,6 C 17,3 C 54 % 1019,2 hPa 0,0 l/m 0 min 0 min 0,0 UV-I 90 W/m 2,6 km/h (1 Bft)
04.06.2013 19:44 20,6 C 15,1 C 54 % 1019,3 hPa 0,0 l/m 0 min 0 min 0,0 UV-I 97 W/m 2,6 km/h (1 Bft)
04.06.2013 19:46 20,7 C 14,6 C 53 % 1019,2 hPa 0,0 l/m 0 min 0 min 0,0 UV-I 98 W/m 0,0 km/h (0 Bft)
04.06.2013 19:48 20,7 C 14,6 C 54 % 1019,1 hPa 0,0 l/m 0 min 0 min 0,0 UV-I 98 W/m 2,6 km/h (1 Bft)
04.06.2013 19:50 20,7 C 14,6 C 53 % 1019,1 hPa 0,0 l/m 0 min 0 min 0,0 UV-I 93 W/m 0,0 km/h (0 Bft)
04.06.2013 19:52 20,7 C 15,1 C 53 % 1019,1 hPa 0,0 l/m 0 min 0 min 0,0 UV-I 91 W/m 0,0 km/h (0 Bft)
04.06.2013 19:54 20,7 C 15,1 C 53 % 1019,2 hPa 0,0 l/m 0 min 0 min 0,0 UV-I 90 W/m 2,6 km/h (1 Bft)
04.06.2013 19:56 20,8 C 15,7 C 52 % 1019,1 hPa 0,0 l/m 0 min 0 min 0,0 UV-I 86 W/m 2,6 km/h (1 Bft)
04.06.2013 19:58 20,8 C 15,7 C 52 % 1019,1 hPa 0,0 l/m 0 min 0 min 0,0 UV-I 90 W/m 2,6 km/h (1 Bft)
04.06.2013 20:00 20,8 C 16,2 C 51 % 1019,0 hPa 0,0 l/m 0 min 0 min 0,0 UV-I 97 W/m 10,3 km/h (2 Bft)
04.06.2013 20:02 20,8 C 16,8 C 51 % 1019,0 hPa 0,0 l/m 0 min 0 min 0,0 UV-I 97 W/m 10,3 km/h (2 Bft)
04.06.2013 20:04 20,9 C 18,4 C 51 % 1019,1 hPa 0,0 l/m 0 min 0 min 0,0 UV-I 97 W/m 12,9 km/h (3 Bft)
04.06.2013 20:06 20,9 C 19,0 C 51 % 1019,1 hPa 0,0 l/m 0 min 0 min 0,0 UV-I 95 W/m 10,3 km/h (2 Bft)
04.06.2013 20:08 20,9 C 19,0 C 51 % 1019,0 hPa 0,0 l/m 0 min 0 min 0,0 UV-I 91 W/m 7,7 km/h (2 Bft)
04.06.2013 20:10 21,0 C 19,0 C 51 % 1019,0 hPa 0,0 l/m 0 min 0 min 0,0 UV-I 84 W/m 12,9 km/h (3 Bft)
04.06.2013 20:12 21,0 C 19,0 C 52 % 1019,1 hPa 0,0 l/m 0 min 0 min 0,0 UV-I 74 W/m 5,1 km/h (1 Bft)
04.06.2013 20:14 20,9 C 19,0 C 51 % 1019,0 hPa 0,0 l/m 0 min 0 min 0,0 UV-I 69 W/m 12,9 km/h (3 Bft)
04.06.2013 20:16 20,9 C 19,0 C 51 % 1019,1 hPa 0,0 l/m 0 min 0 min 0,0 UV-I 65 W/m 12,9 km/h (3 Bft)
04.06.2013 20:18 20,9 C 19,0 C 51 % 1019,1 hPa 0,0 l/m 0 min 0 min 0,0 UV-I 62 W/m 10,3 km/h (2 Bft)
04.06.2013 20:20 20,8 C 19,0 C 51 % 1019,1 hPa 0,0 l/m 0 min 0 min 0,0 UV-I 60 W/m 7,7 km/h (2 Bft)
04.06.2013 20:22 20,8 C 18,4 C 52 % 1019,0 hPa 0,0 l/m 0 min 0 min 0,0 UV-I 63 W/m 5,1 km/h (1 Bft)
04.06.2013 20:24 20,7 C 18,4 C 51 % 1019,0 hPa 0,0 l/m 0 min 0 min 0,0 UV-I 67 W/m 7,7 km/h (2 Bft)
04.06.2013 20:26 20,7 C 18,4 C 54 % 1019,1 hPa 0,0 l/m 0 min 0 min 0,0 UV-I 69 W/m 0,0 km/h (0 Bft)
04.06.2013 20:28 20,7 C 18,4 C 51 % 1019,1 hPa 0,0 l/m 0 min 0 min 0,0 UV-I 67 W/m 2,6 km/h (1 Bft)
04.06.2013 20:30 20,6 C 18,4 C 51 % 1019,0 hPa 0,0 l/m 0 min 0 min 0,0 UV-I 62 W/m 0,0 km/h (0 Bft)
04.06.2013 20:32 20,6 C 17,9 C 52 % 1019,0 hPa 0,0 l/m 0 min 0 min 0,0 UV-I 56 W/m 0,0 km/h (0 Bft)
04.06.2013 20:34 20,6 C 17,9 C 53 % 1019,0 hPa 0,0 l/m 0 min 0 min 0,0 UV-I 49 W/m 0,0 km/h (0 Bft)
04.06.2013 20:36 20,5 C 17,9 C 52 % 1019,1 hPa 0,0 l/m 0 min 0 min 0,0 UV-I 46 W/m 2,6 km/h (1 Bft)
04.06.2013 20:38 20,4 C 17,9 C 53 % 1019,0 hPa 0,0 l/m 0 min 0 min 0,0 UV-I 42 W/m 0,0 km/h (0 Bft)
04.06.2013 20:40 20,3 C 17,3 C 55 % 1019,0 hPa 0,0 l/m 0 min 0 min 0,0 UV-I 39 W/m 0,0 km/h (0 Bft)
04.06.2013 20:42 20,2 C 17,3 C 55 % 1019,0 hPa 0,0 l/m 0 min 0 min 0,0 UV-I 40 W/m 0,0 km/h (0 Bft)
04.06.2013 20:44 20,1 C 17,3 C 55 % 1019,0 hPa 0,0 l/m 0 min 0 min 0,0 UV-I 35 W/m 2,6 km/h (1 Bft)
04.06.2013 20:46 20,0 C 17,3 C 55 % 1019,0 hPa 0,0 l/m 0 min 0 min 0,0 UV-I 33 W/m 0,0 km/h (0 Bft)
04.06.2013 20:48 20,0 C 16,8 C 55 % 1019,0 hPa 0,0 l/m 0 min 0 min 0,0 UV-I 33 W/m 0,0 km/h (0 Bft)
04.06.2013 20:50 20,0 C 16,2 C 56 % 1019,0 hPa 0,0 l/m 0 min 0 min 0,0 UV-I 32 W/m 0,0 km/h (0 Bft)
04.06.2013 20:52 20,0 C 16,2 C 57 % 1019,0 hPa 0,0 l/m 0 min 0 min 0,0 UV-I 32 W/m 0,0 km/h (0 Bft)
04.06.2013 20:54 19,9 C 16,2 C 56 % 1019,0 hPa 0,0 l/m 0 min 0 min 0,0 UV-I 32 W/m 0,0 km/h (0 Bft)
04.06.2013 20:56 19,9 C 15,7 C 56 % 1019,0 hPa 0,0 l/m 0 min 0 min 0,0 UV-I 33 W/m 0,0 km/h (0 Bft)
04.06.2013 20:58 19,9 C 15,7 C 56 % 1019,0 hPa 0,0 l/m 0 min 0 min 0,0 UV-I 35 W/m 0,0 km/h (0 Bft)
04.06.2013 21:00 19,9 C 15,7 C 56 % 1019,0 hPa 0,0 l/m 0 min 0 min 0,0 UV-I 35 W/m 0,0 km/h (0 Bft)
04.06.2013 21:02 19,9 C 15,7 C 56 % 1019,0 hPa 0,0 l/m 0 min 0 min 0,0 UV-I 35 W/m 0,0 km/h (0 Bft)
04.06.2013 21:04 19,9 C 15,7 C 57 % 1019,0 hPa 0,0 l/m 0 min 0 min 0,0 UV-I 35 W/m 0,0 km/h (0 Bft)
04.06.2013 21:06 19,9 C 15,7 C 57 % 1018,9 hPa 0,0 l/m 0 min 0 min 0,0 UV-I 33 W/m 0,0 km/h (0 Bft)
04.06.2013 21:08 19,8 C 15,7 C 57 % 1018,9 hPa 0,0 l/m 0 min 0 min 0,0 UV-I 32 W/m 0,0 km/h (0 Bft)
04.06.2013 21:10 19,8 C 15,7 C 57 % 1019,0 hPa 0,0 l/m 0 min 0 min 0,0 UV-I 28 W/m 0,0 km/h (0 Bft)
04.06.2013 21:12 19,8 C 15,7 C 58 % 1019,0 hPa 0,0 l/m 0 min 0 min 0,0 UV-I 25 W/m 0,0 km/h (0 Bft)
04.06.2013 21:14 19,8 C 15,7 C 58 % 1019,0 hPa 0,0 l/m 0 min 0 min 0,0 UV-I 23 W/m 0,0 km/h (0 Bft)
04.06.2013 21:16 19,8 C 15,1 C 58 % 1019,0 hPa 0,0 l/m 0 min 0 min 0,0 UV-I 19 W/m 0,0 km/h (0 Bft)
04.06.2013 21:18 19,7 C 15,1 C 58 % 1019,0 hPa 0,0 l/m 0 min 0 min 0,0 UV-I 18 W/m 0,0 km/h (0 Bft)
04.06.2013 21:20 19,7 C 15,1 C 58 % 1019,0 hPa 0,0 l/m 0 min 0 min 0,0 UV-I 14 W/m 0,0 km/h (0 Bft)
04.06.2013 21:22 19,7 C 15,1 C 58 % 1019,0 hPa 0,0 l/m 0 min 0 min 0,0 UV-I 12 W/m 0,0 km/h (0 Bft)
04.06.2013 21:24 19,6 C 15,1 C 58 % 1019,0 hPa 0,0 l/m 0 min 0 min 0,0 UV-I 11 W/m 0,0 km/h (0 Bft)
04.06.2013 21:26 19,6 C 15,1 C 58 % 1019,0 hPa 0,0 l/m 0 min 0 min 0,0 UV-I 11 W/m 0,0 km/h (0 Bft)
04.06.2013 21:28 19,6 C 15,1 C 58 % 1019,0 hPa 0,0 l/m 0 min 0 min 0,0 UV-I 9 W/m 0,0 km/h (0 Bft)
04.06.2013 21:30 19,5 C 15,1 C 58 % 1019,0 hPa 0,0 l/m 0 min 0 min 0,0 UV-I 9 W/m 0,0 km/h (0 Bft)
04.06.2013 21:32 19,4 C 15,1 C 58 % 1019,1 hPa 0,0 l/m 0 min 0 min 0,0 UV-I 7 W/m 0,0 km/h (0 Bft)
04.06.2013 21:34 19,4 C 15,1 C 58 % 1019,0 hPa 0,0 l/m 0 min 0 min 0,0 UV-I 7 W/m 0,0 km/h (0 Bft)
04.06.2013 21:36 19,4 C 15,1 C 58 % 1019,0 hPa 0,0 l/m 0 min 0 min 0,0 UV-I 7 W/m 0,0 km/h (0 Bft)
04.06.2013 21:38 19,4 C 15,1 C 58 % 1019,1 hPa 0,0 l/m 0 min 0 min 0,0 UV-I 7 W/m 0,0 km/h (0 Bft)
04.06.2013 21:40 19,3 C 15,1 C 58 % 1019,1 hPa 0,0 l/m 0 min 0 min 0,0 UV-I 5 W/m 0,0 km/h (0 Bft)
04.06.2013 21:42 19,3 C 15,1 C 59 % 1019,1 hPa 0,0 l/m 0 min 0 min 0,0 UV-I 5 W/m 0,0 km/h (0 Bft)
04.06.2013 21:44 19,3 C 14,6 C 59 % 1019,1 hPa 0,0 l/m 0 min 0 min 0,0 UV-I 5 W/m 0,0 km/h (0 Bft)
04.06.2013 21:46 19,3 C 14,6 C 59 % 1019,2 hPa 0,0 l/m 0 min 0 min 0,0 UV-I 5 W/m 0,0 km/h (0 Bft)
04.06.2013 21:48 19,2 C 14,6 C 60 % 1019,1 hPa 0,0 l/m 0 min 0 min 0,0 UV-I 0 W/m 0,0 km/h (0 Bft)
04.06.2013 21:50 19,2 C 14,6 C 59 % 1019,2 hPa 0,0 l/m 0 min 0 min 0,0 UV-I 0 W/m 0,0 km/h (0 Bft)
04.06.2013 21:52 19,1 C 14,6 C 59 % 1019,4 hPa 0,0 l/m 0 min 0 min 0,0 UV-I 0 W/m 0,0 km/h (0 Bft)
04.06.2013 21:54 19,1 C 14,6 C 59 % 1019,4 hPa 0,0 l/m 0 min 0 min 0,0 UV-I 0 W/m 0,0 km/h (0 Bft)
04.06.2013 21:56 19,1 C 14,6 C 59 % 1019,4 hPa 0,0 l/m 0 min 0 min 0,0 UV-I 0 W/m 0,0 km/h (0 Bft)
04.06.2013 21:58 19,0 C 14,6 C 59 % 1019,4 hPa 0,0 l/m 0 min 0 min 0,0 UV-I 0 W/m 0,0 km/h (0 Bft)
04.06.2013 22:00 18,9 C 14,6 C 59 % 1019,4 hPa 0,0 l/m 0 min 0 min 0,0 UV-I 0 W/m 0,0 km/h (0 Bft)
04.06.2013 22:02 18,9 C 15,1 C 59 % 1019,4 hPa 0,0 l/m 0 min 0 min 0,0 UV-I 0 W/m 0,0 km/h (0 Bft)
04.06.2013 22:06 18,8 C 15,7 C 58 % 1019,5 hPa 0,0 l/m 0 min 0 min 0,0 UV-I 0 W/m 7,7 km/h (2 Bft)
04.06.2013 22:08 18,8 C 15,7 C 58 % 1019,5 hPa 0,0 l/m 0 min 0 min 0,0 UV-I 0 W/m 12,9 km/h (3 Bft)
04.06.2013 22:10 18,8 C 15,7 C 58 % 1019,6 hPa 0,0 l/m 0 min 0 min 0,0 UV-I 0 W/m 0,0 km/h (0 Bft)
04.06.2013 22:12 18,7 C 16,2 C 58 % 1019,6 hPa 0,0 l/m 0 min 0 min 0,0 UV-I 0 W/m 0,0 km/h (0 Bft)
04.06.2013 22:14 18,7 C 15,7 C 58 % 1019,6 hPa 0,0 l/m 0 min 0 min 0,0 UV-I 0 W/m 0,0 km/h (0 Bft)
04.06.2013 22:16 18,7 C 16,2 C 57 % 1019,6 hPa 0,0 l/m 0 min 0 min 0,0 UV-I 0 W/m 2,6 km/h (1 Bft)
04.06.2013 22:18 18,6 C 16,2 C 56 % 1019,6 hPa 0,0 l/m 0 min 0 min 0,0 UV-I 0 W/m 12,9 km/h (3 Bft)
04.06.2013 22:20 18,6 C 16,2 C 57 % 1019,6 hPa 0,0 l/m 0 min 0 min 0,0 UV-I 0 W/m 7,7 km/h (2 Bft)
04.06.2013 22:22 18,6 C 16,2 C 56 % 1019,6 hPa 0,0 l/m 0 min 0 min 0,0 UV-I 0 W/m 7,7 km/h (2 Bft)
04.06.2013 22:24 18,5 C 16,2 C 56 % 1019,6 hPa 0,0 l/m 0 min 0 min 0,0 UV-I 0 W/m 10,3 km/h (2 Bft)
04.06.2013 22:26 18,4 C 16,2 C 56 % 1019,6 hPa 0,0 l/m 0 min 0 min 0,0 UV-I 0 W/m 7,7 km/h (2 Bft)
04.06.2013 22:28 18,4 C 16,2 C 56 % 1019,7 hPa 0,0 l/m 0 min 0 min 0,0 UV-I 0 W/m 10,3 km/h (2 Bft)
04.06.2013 22:30 18,3 C 16,2 C 56 % 1019,7 hPa 0,0 l/m 0 min 0 min 0,0 UV-I 0 W/m 10,3 km/h (2 Bft)
04.06.2013 22:32 18,3 C 16,2 C 56 % 1019,6 hPa 0,0 l/m 0 min 0 min 0,0 UV-I 0 W/m 2,6 km/h (1 Bft)
04.06.2013 22:34 18,3 C 15,7 C 56 % 1019,7 hPa 0,0 l/m 0 min 0 min 0,0 UV-I 0 W/m 2,6 km/h (1 Bft)
04.06.2013 22:36 18,2 C 15,7 C 56 % 1019,7 hPa 0,0 l/m 0 min 0 min 0,0 UV-I 0 W/m 0,0 km/h (0 Bft)
04.06.2013 22:38 18,2 C 15,7 C 56 % 1019,7 hPa 0,0 l/m 0 min 0 min 0,0 UV-I 0 W/m 0,0 km/h (0 Bft)
04.06.2013 22:40 18,2 C 15,1 C 57 % 1019,7 hPa 0,0 l/m 0 min 0 min 0,0 UV-I 0 W/m 0,0 km/h (0 Bft)
04.06.2013 22:42 18,1 C 14,6 C 57 % 1019,7 hPa 0,0 l/m 0 min 0 min 0,0 UV-I 0 W/m 0,0 km/h (0 Bft)
04.06.2013 22:44 18,1 C 14,6 C 58 % 1019,7 hPa 0,0 l/m 0 min 0 min 0,0 UV-I 0 W/m 0,0 km/h (0 Bft)
04.06.2013 22:46 18,1 C 14,0 C 58 % 1019,7 hPa 0,0 l/m 0 min 0 min 0,0 UV-I 0 W/m 0,0 km/h (0 Bft)
04.06.2013 22:48 18,0 C 14,0 C 58 % 1019,7 hPa 0,0 l/m 0 min 0 min 0,0 UV-I 0 W/m 0,0 km/h (0 Bft)
04.06.2013 22:50 17,9 C 13,4 C 58 % 1019,7 hPa 0,0 l/m 0 min 0 min 0,0 UV-I 0 W/m 0,0 km/h (0 Bft)
04.06.2013 22:52 17,9 C 13,4 C 59 % 1019,6 hPa 0,0 l/m 0 min 0 min 0,0 UV-I 0 W/m 0,0 km/h (0 Bft)
04.06.2013 22:54 17,8 C 13,4 C 57 % 1019,6 hPa 0,0 l/m 0 min 0 min 0,0 UV-I 0 W/m 2,6 km/h (1 Bft)
04.06.2013 22:56 17,7 C 12,9 C 57 % 1019,6 hPa 0,0 l/m 0 min 0 min 0,0 UV-I 0 W/m 0,0 km/h (0 Bft)
04.06.2013 22:58 17,6 C 13,4 C 56 % 1019,6 hPa 0,0 l/m 0 min 0 min 0,0 UV-I 0 W/m 2,6 km/h (1 Bft)
04.06.2013 23:00 17,5 C 13,4 C 56 % 1019,6 hPa 0,0 l/m 0 min 0 min 0,0 UV-I 0 W/m 0,0 km/h (0 Bft)
04.06.2013 23:02 17,4 C 13,4 C 56 % 1019,6 hPa 0,0 l/m 0 min 0 min 0,0 UV-I 0 W/m 0,0 km/h (0 Bft)
04.06.2013 23:04 17,3 C 13,4 C 56 % 1019,6 hPa 0,0 l/m 0 min 0 min 0,0 UV-I 0 W/m 0,0 km/h (0 Bft)
04.06.2013 23:06 17,3 C 13,4 C 57 % 1019,6 hPa 0,0 l/m 0 min 0 min 0,0 UV-I 0 W/m 0,0 km/h (0 Bft)
04.06.2013 23:08 17,2 C 12,9 C 57 % 1019,6 hPa 0,0 l/m 0 min 0 min 0,0 UV-I 0 W/m 0,0 km/h (0 Bft)
04.06.2013 23:10 17,2 C 12,9 C 58 % 1019,5 hPa 0,0 l/m 0 min 0 min 0,0 UV-I 0 W/m 0,0 km/h (0 Bft)
04.06.2013 23:12 17,1 C 12,9 C 58 % 1019,5 hPa 0,0 l/m 0 min 0 min 0,0 UV-I 0 W/m 0,0 km/h (0 Bft)
04.06.2013 23:14 17,0 C 12,3 C 58 % 1019,5 hPa 0,0 l/m 0 min 0 min 0,0 UV-I 0 W/m 0,0 km/h (0 Bft)
04.06.2013 23:16 16,9 C 12,3 C 59 % 1019,6 hPa 0,0 l/m 0 min 0 min 0,0 UV-I 0 W/m 0,0 km/h (0 Bft)
04.06.2013 23:18 16,9 C 12,3 C 59 % 1019,6 hPa 0,0 l/m 0 min 0 min 0,0 UV-I 0 W/m 0,0 km/h (0 Bft)
04.06.2013 23:20 16,8 C 12,3 C 58 % 1019,6 hPa 0,0 l/m 0 min 0 min 0,0 UV-I 0 W/m 5,1 km/h (1 Bft)
04.06.2013 23:22 16,7 C 12,3 C 58 % 1019,6 hPa 0,0 l/m 0 min 0 min 0,0 UV-I 0 W/m 0,0 km/h (0 Bft)
04.06.2013 23:24 16,6 C 12,3 C 59 % 1019,6 hPa 0,0 l/m 0 min 0 min 0,0 UV-I 0 W/m 0,0 km/h (0 Bft)
04.06.2013 23:26 16,6 C 12,3 C 59 % 1019,5 hPa 0,0 l/m 0 min 0 min 0,0 UV-I 0 W/m 0,0 km/h (0 Bft)
04.06.2013 23:28 16,5 C 12,3 C 59 % 1019,5 hPa 0,0 l/m 0 min 0 min 0,0 UV-I 0 W/m 0,0 km/h (0 Bft)
04.06.2013 23:30 16,4 C 12,3 C 59 % 1019,5 hPa 0,0 l/m 0 min 0 min 0,0 UV-I 0 W/m 0,0 km/h (0 Bft)
04.06.2013 23:32 16,4 C 11,8 C 60 % 1019,5 hPa 0,0 l/m 0 min 0 min 0,0 UV-I 0 W/m 0,0 km/h (0 Bft)
04.06.2013 23:34 16,3 C 11,8 C 61 % 1019,6 hPa 0,0 l/m 0 min 0 min 0,0 UV-I 0 W/m 0,0 km/h (0 Bft)
04.06.2013 23:36 16,2 C 11,8 C 61 % 1019,6 hPa 0,0 l/m 0 min 0 min 0,0 UV-I 0 W/m 0,0 km/h (0 Bft)
04.06.2013 23:38 16,2 C 11,8 C 61 % 1019,6 hPa 0,0 l/m 0 min 0 min 0,0 UV-I 0 W/m 0,0 km/h (0 Bft)
04.06.2013 23:40 16,1 C 11,8 C 61 % 1019,6 hPa 0,0 l/m 0 min 0 min 0,0 UV-I 0 W/m 0,0 km/h (0 Bft)
04.06.2013 23:42 16,1 C 11,2 C 61 % 1019,5 hPa 0,0 l/m 0 min 0 min 0,0 UV-I 0 W/m 0,0 km/h (0 Bft)
04.06.2013 23:44 15,9 C 11,2 C 62 % 1019,5 hPa 0,0 l/m 0 min 0 min 0,0 UV-I 0 W/m 0,0 km/h (0 Bft)
04.06.2013 23:46 15,9 C 11,2 C 62 % 1019,6 hPa 0,0 l/m 0 min 0 min 0,0 UV-I 0 W/m 0,0 km/h (0 Bft)
04.06.2013 23:48 15,8 C 11,2 C 62 % 1019,6 hPa 0,0 l/m 0 min 0 min 0,0 UV-I 0 W/m 0,0 km/h (0 Bft)
04.06.2013 23:50 15,7 C 11,2 C 62 % 1019,6 hPa 0,0 l/m 0 min 0 min 0,0 UV-I 0 W/m 0,0 km/h (0 Bft)
04.06.2013 23:52 15,7 C 11,2 C 62 % 1019,6 hPa 0,0 l/m 0 min 0 min 0,0 UV-I 0 W/m 0,0 km/h (0 Bft)
04.06.2013 23:54 15,6 C 11,2 C 62 % 1019,6 hPa 0,0 l/m 0 min 0 min 0,0 UV-I 0 W/m 2,6 km/h (1 Bft)
04.06.2013 23:56 15,5 C 11,2 C 62 % 1019,5 hPa 0,0 l/m 0 min 0 min 0,0 UV-I 0 W/m 0,0 km/h (0 Bft)
04.06.2013 23:58 15,4 C 11,2 C 62 % 1019,5 hPa 0,0 l/m 0 min 0 min 0,0 UV-I 0 W/m 0,0 km/h (0 Bft)
_ Min-Zeit 04:00 03:30 19:24 21:06 - - - - - 00:00
Minimum _ 7,1 C 5,7 C 51 % 1018,9 hPa - - - - - 0,0 km/h (0 Bft)
_ Max-Zeit 18:56 13:00 05:08 00:00 00:00 10:20 19:22 14:10 13:55 14:18
Maximum _ 21,3 C 25,1 C 92 % 1026,5 hPa 0,0 l/m 2 min 2 min 5,0 UV-I 1007 W/m 30,9 km/h
N-NW (5 Bft)
Durchschnitt _ 14,1 C 14,0 C 73 % 1022,8 hPa #0,0 l/m #6:20 h #4 min. 2,8 UV-I 375 W/m 7,6 km/h (2 Bft)
© 2013 W. Hausmann